﻿<?xml version="1.0" encoding="UTF-8" standalone="no" ?>
<gpx xmlns="http://www.topografix.com/GPX/1/1" creator="CompeGPS" version="1.1" xmlns:xsi="http://www.w3.org/2001/XMLSchema-instance" xsi:schemaLocation="http://www.topografix.com/GPX/1/1 http://www.topografix.com/GPX/1/1/gpx.xsd http://www.garmin.com/xmlschemas/GpxExtensions/v3 http://www.garmin.com/xmlschemas/GpxExtensionsv3.xsd http://www.garmin.com/xmlschemas/TrackPointExtension/v1 http://www.garmin.com/xmlschemas/TrackPointExtensionv1.xsd" xmlns:gpxtpx="http://www.garmin.com/xmlschemas/TrackPointExtension/v1">
  <metadata>
    <link href="http://www.compegps.com">
      <text>CompeGPS TEAM, SL</text>
    </link>
    <time>2013-02-10T19:28:59Z</time>
    <bounds maxlat="42.927880" maxlon="1.593460" minlat="42.898723" minlon="1.561740"/>
  </metadata>
<wpt lat="42.927870" lon="1.588393">
<ele>1088</ele>
<name>Prat de Redon</name>
</wpt>
<wpt lat="42.919451" lon="1.579818">
<ele>1230</ele>
<name>Cab. Prat d Albis</name>
</wpt>
<wpt lat="42.914216" lon="1.565246">
<ele>1407</ele>
<name>Cap Coume de l Orri</name>
</wpt>
<wpt lat="42.905894" lon="1.561755">
<ele>1490</ele>
<name>Bout de Touron</name>
</wpt>
<wpt lat="42.899087" lon="1.574452">
<ele>1350</ele>
<name>Cab. des Gardes</name>
</wpt>
<wpt lat="42.908115" lon="1.583408">
<ele>1140</ele>
<name>Carrefour</name>
</wpt>
  <trk>
    <name>Bout de Touron</name>
    <trkseg>
      <trkpt lat="42.927870" lon="1.588393">
        <ele>1080.2</ele>
        <time>2013-02-10T08:31:04Z</time>
        <name>Prat de Redon</name>
      </trkpt>
      <trkpt lat="42.927787" lon="1.588414">
        <ele>1081.1</ele>
        <time>2013-02-10T08:31:16Z</time>
      </trkpt>
      <trkpt lat="42.927692" lon="1.588473">
        <ele>1081.1</ele>
        <time>2013-02-10T08:31:27Z</time>
      </trkpt>
      <trkpt lat="42.927613" lon="1.588502">
        <ele>1081.6</ele>
        <time>2013-02-10T08:32:18Z</time>
      </trkpt>
      <trkpt lat="42.927539" lon="1.588460">
        <ele>1082.1</ele>
        <time>2013-02-10T08:33:00Z</time>
      </trkpt>
      <trkpt lat="42.927446" lon="1.588433">
        <ele>1082.1</ele>
        <time>2013-02-10T08:33:09Z</time>
      </trkpt>
      <trkpt lat="42.927355" lon="1.588393">
        <ele>1073.7</ele>
        <time>2013-02-10T08:33:18Z</time>
      </trkpt>
      <trkpt lat="42.927253" lon="1.588350">
        <ele>1082.6</ele>
        <time>2013-02-10T08:33:26Z</time>
      </trkpt>
      <trkpt lat="42.927150" lon="1.588344">
        <ele>1082.6</ele>
        <time>2013-02-10T08:33:34Z</time>
      </trkpt>
      <trkpt lat="42.927053" lon="1.588334">
        <ele>1084.0</ele>
        <time>2013-02-10T08:33:43Z</time>
      </trkpt>
      <trkpt lat="42.926960" lon="1.588308">
        <ele>1085.0</ele>
        <time>2013-02-10T08:33:52Z</time>
      </trkpt>
      <trkpt lat="42.926867" lon="1.588298">
        <ele>1086.4</ele>
        <time>2013-02-10T08:34:01Z</time>
      </trkpt>
      <trkpt lat="42.926770" lon="1.588276">
        <ele>1087.4</ele>
        <time>2013-02-10T08:34:10Z</time>
      </trkpt>
      <trkpt lat="42.926684" lon="1.588264">
        <ele>1089.3</ele>
        <time>2013-02-10T08:34:19Z</time>
      </trkpt>
      <trkpt lat="42.926594" lon="1.588222">
        <ele>1091.7</ele>
        <time>2013-02-10T08:34:29Z</time>
      </trkpt>
      <trkpt lat="42.926509" lon="1.588211">
        <ele>1093.2</ele>
        <time>2013-02-10T08:34:44Z</time>
      </trkpt>
      <trkpt lat="42.926412" lon="1.588189">
        <ele>1095.6</ele>
        <time>2013-02-10T08:34:56Z</time>
      </trkpt>
      <trkpt lat="42.926321" lon="1.588151">
        <ele>1098.0</ele>
        <time>2013-02-10T08:35:07Z</time>
      </trkpt>
      <trkpt lat="42.926234" lon="1.588111">
        <ele>1099.9</ele>
        <time>2013-02-10T08:35:18Z</time>
      </trkpt>
      <trkpt lat="42.926138" lon="1.588107">
        <ele>1101.3</ele>
        <time>2013-02-10T08:35:28Z</time>
      </trkpt>
      <trkpt lat="42.926068" lon="1.588034">
        <ele>1102.8</ele>
        <time>2013-02-10T08:35:38Z</time>
      </trkpt>
      <trkpt lat="42.925982" lon="1.587993">
        <ele>1105.7</ele>
        <time>2013-02-10T08:35:49Z</time>
      </trkpt>
      <trkpt lat="42.925888" lon="1.587950">
        <ele>1107.1</ele>
        <time>2013-02-10T08:35:59Z</time>
      </trkpt>
      <trkpt lat="42.925806" lon="1.587901">
        <ele>1108.5</ele>
        <time>2013-02-10T08:36:11Z</time>
      </trkpt>
      <trkpt lat="42.925720" lon="1.587876">
        <ele>1110.0</ele>
        <time>2013-02-10T08:36:24Z</time>
      </trkpt>
      <trkpt lat="42.925640" lon="1.587814">
        <ele>1111.9</ele>
        <time>2013-02-10T08:36:36Z</time>
      </trkpt>
      <trkpt lat="42.925570" lon="1.587750">
        <ele>1113.3</ele>
        <time>2013-02-10T08:36:48Z</time>
      </trkpt>
      <trkpt lat="42.925509" lon="1.587674">
        <ele>1114.3</ele>
        <time>2013-02-10T08:37:02Z</time>
      </trkpt>
      <trkpt lat="42.925446" lon="1.587594">
        <ele>1115.8</ele>
        <time>2013-02-10T08:37:15Z</time>
      </trkpt>
      <trkpt lat="42.925380" lon="1.587538">
        <ele>1118.6</ele>
        <time>2013-02-10T08:37:28Z</time>
      </trkpt>
      <trkpt lat="42.925305" lon="1.587485">
        <ele>1121.0</ele>
        <time>2013-02-10T08:37:39Z</time>
      </trkpt>
      <trkpt lat="42.925232" lon="1.587417">
        <ele>1123.4</ele>
        <time>2013-02-10T08:37:50Z</time>
      </trkpt>
      <trkpt lat="42.925153" lon="1.587361">
        <ele>1124.9</ele>
        <time>2013-02-10T08:38:02Z</time>
      </trkpt>
      <trkpt lat="42.925075" lon="1.587310">
        <ele>1127.3</ele>
        <time>2013-02-10T08:38:13Z</time>
      </trkpt>
      <trkpt lat="42.924993" lon="1.587264">
        <ele>1128.7</ele>
        <time>2013-02-10T08:38:25Z</time>
      </trkpt>
      <trkpt lat="42.924909" lon="1.587255">
        <ele>1130.2</ele>
        <time>2013-02-10T08:38:37Z</time>
      </trkpt>
      <trkpt lat="42.924830" lon="1.587199">
        <ele>1132.6</ele>
        <time>2013-02-10T08:38:50Z</time>
      </trkpt>
      <trkpt lat="42.924745" lon="1.587222">
        <ele>1134.0</ele>
        <time>2013-02-10T08:39:03Z</time>
      </trkpt>
      <trkpt lat="42.924655" lon="1.587197">
        <ele>1136.4</ele>
        <time>2013-02-10T08:39:15Z</time>
      </trkpt>
      <trkpt lat="42.924564" lon="1.587181">
        <ele>1138.3</ele>
        <time>2013-02-10T08:39:28Z</time>
      </trkpt>
      <trkpt lat="42.924487" lon="1.587124">
        <ele>1139.3</ele>
        <time>2013-02-10T08:39:42Z</time>
      </trkpt>
      <trkpt lat="42.924429" lon="1.587046">
        <ele>1141.2</ele>
        <time>2013-02-10T08:39:57Z</time>
      </trkpt>
      <trkpt lat="42.924392" lon="1.586943">
        <ele>1141.2</ele>
        <time>2013-02-10T08:40:09Z</time>
      </trkpt>
      <trkpt lat="42.924363" lon="1.586815">
        <ele>1142.7</ele>
        <time>2013-02-10T08:40:21Z</time>
      </trkpt>
      <trkpt lat="42.924288" lon="1.586756">
        <ele>1144.1</ele>
        <time>2013-02-10T08:40:32Z</time>
      </trkpt>
      <trkpt lat="42.924204" lon="1.586728">
        <ele>1144.6</ele>
        <time>2013-02-10T08:40:41Z</time>
      </trkpt>
      <trkpt lat="42.924125" lon="1.586698">
        <ele>1146.0</ele>
        <time>2013-02-10T08:40:54Z</time>
      </trkpt>
      <trkpt lat="42.924054" lon="1.586630">
        <ele>1147.0</ele>
        <time>2013-02-10T08:41:07Z</time>
      </trkpt>
      <trkpt lat="42.923985" lon="1.586541">
        <ele>1147.9</ele>
        <time>2013-02-10T08:41:20Z</time>
      </trkpt>
      <trkpt lat="42.923902" lon="1.586529">
        <ele>1149.4</ele>
        <time>2013-02-10T08:41:32Z</time>
      </trkpt>
      <trkpt lat="42.923814" lon="1.586526">
        <ele>1151.3</ele>
        <time>2013-02-10T08:41:45Z</time>
      </trkpt>
      <trkpt lat="42.923670" lon="1.586484">
        <ele>1155.2</ele>
        <time>2013-02-10T08:42:11Z</time>
      </trkpt>
      <trkpt lat="42.923588" lon="1.586506">
        <ele>1157.6</ele>
        <time>2013-02-10T08:42:27Z</time>
      </trkpt>
      <trkpt lat="42.923516" lon="1.586500">
        <ele>1159.5</ele>
        <time>2013-02-10T08:43:09Z</time>
      </trkpt>
      <trkpt lat="42.923490" lon="1.586463">
        <ele>1160.0</ele>
        <time>2013-02-10T08:43:37Z</time>
      </trkpt>
      <trkpt lat="42.923468" lon="1.586390">
        <ele>1161.9</ele>
        <time>2013-02-10T08:44:36Z</time>
      </trkpt>
      <trkpt lat="42.923411" lon="1.586299">
        <ele>1164.3</ele>
        <time>2013-02-10T08:45:03Z</time>
      </trkpt>
      <trkpt lat="42.923338" lon="1.586305">
        <ele>1167.2</ele>
        <time>2013-02-10T08:45:19Z</time>
      </trkpt>
      <trkpt lat="42.923232" lon="1.586218">
        <ele>1170.5</ele>
        <time>2013-02-10T08:45:50Z</time>
      </trkpt>
      <trkpt lat="42.923222" lon="1.586095">
        <ele>1172.5</ele>
        <time>2013-02-10T08:46:04Z</time>
      </trkpt>
      <trkpt lat="42.923173" lon="1.585988">
        <ele>1175.3</ele>
        <time>2013-02-10T08:46:21Z</time>
      </trkpt>
      <trkpt lat="42.923106" lon="1.585971">
        <ele>1177.3</ele>
        <time>2013-02-10T08:46:37Z</time>
      </trkpt>
      <trkpt lat="42.923051" lon="1.585981">
        <ele>1179.2</ele>
        <time>2013-02-10T08:46:52Z</time>
      </trkpt>
      <trkpt lat="42.922986" lon="1.585910">
        <ele>1181.1</ele>
        <time>2013-02-10T08:47:08Z</time>
      </trkpt>
      <trkpt lat="42.922961" lon="1.585783">
        <ele>1183.5</ele>
        <time>2013-02-10T08:47:24Z</time>
      </trkpt>
      <trkpt lat="42.922886" lon="1.585831">
        <ele>1185.9</ele>
        <time>2013-02-10T08:47:44Z</time>
      </trkpt>
      <trkpt lat="42.922791" lon="1.585875">
        <ele>1188.8</ele>
        <time>2013-02-10T08:47:59Z</time>
      </trkpt>
      <trkpt lat="42.922712" lon="1.585944">
        <ele>1190.2</ele>
        <time>2013-02-10T08:48:14Z</time>
      </trkpt>
      <trkpt lat="42.922620" lon="1.585959">
        <ele>1193.1</ele>
        <time>2013-02-10T08:48:28Z</time>
      </trkpt>
      <trkpt lat="42.922537" lon="1.585922">
        <ele>1195.1</ele>
        <time>2013-02-10T08:48:56Z</time>
      </trkpt>
      <trkpt lat="42.922443" lon="1.585904">
        <ele>1197.0</ele>
        <time>2013-02-10T08:49:12Z</time>
      </trkpt>
      <trkpt lat="42.922356" lon="1.585888">
        <ele>1198.4</ele>
        <time>2013-02-10T08:49:36Z</time>
      </trkpt>
      <trkpt lat="42.922286" lon="1.585800">
        <ele>1200.3</ele>
        <time>2013-02-10T08:49:51Z</time>
      </trkpt>
      <trkpt lat="42.922224" lon="1.585708">
        <ele>1201.8</ele>
        <time>2013-02-10T08:50:04Z</time>
      </trkpt>
      <trkpt lat="42.922150" lon="1.585618">
        <ele>1203.2</ele>
        <time>2013-02-10T08:50:18Z</time>
      </trkpt>
      <trkpt lat="42.922087" lon="1.585545">
        <ele>1204.7</ele>
        <time>2013-02-10T08:50:32Z</time>
      </trkpt>
      <trkpt lat="42.922022" lon="1.585472">
        <ele>1206.1</ele>
        <time>2013-02-10T08:50:46Z</time>
      </trkpt>
      <trkpt lat="42.921950" lon="1.585380">
        <ele>1207.1</ele>
        <time>2013-02-10T08:51:01Z</time>
      </trkpt>
      <trkpt lat="42.921903" lon="1.585364">
        <ele>1208.0</ele>
        <time>2013-02-10T08:55:15Z</time>
      </trkpt>
      <trkpt lat="42.921824" lon="1.585301">
        <ele>1208.5</ele>
        <time>2013-02-10T08:55:29Z</time>
      </trkpt>
      <trkpt lat="42.921763" lon="1.585217">
        <ele>1209.0</ele>
        <time>2013-02-10T08:55:40Z</time>
      </trkpt>
      <trkpt lat="42.921700" lon="1.585111">
        <ele>1209.5</ele>
        <time>2013-02-10T08:55:51Z</time>
      </trkpt>
      <trkpt lat="42.921650" lon="1.584995">
        <ele>1209.5</ele>
        <time>2013-02-10T08:56:01Z</time>
      </trkpt>
      <trkpt lat="42.921595" lon="1.584896">
        <ele>1209.0</ele>
        <time>2013-02-10T08:56:11Z</time>
      </trkpt>
      <trkpt lat="42.921542" lon="1.584774">
        <ele>1209.5</ele>
        <time>2013-02-10T08:56:21Z</time>
      </trkpt>
      <trkpt lat="42.921497" lon="1.584666">
        <ele>1208.0</ele>
        <time>2013-02-10T08:56:31Z</time>
      </trkpt>
      <trkpt lat="42.921453" lon="1.584537">
        <ele>1208.5</ele>
        <time>2013-02-10T08:56:41Z</time>
      </trkpt>
      <trkpt lat="42.921410" lon="1.584416">
        <ele>1208.0</ele>
        <time>2013-02-10T08:56:50Z</time>
      </trkpt>
      <trkpt lat="42.921362" lon="1.584287">
        <ele>1206.6</ele>
        <time>2013-02-10T08:57:00Z</time>
      </trkpt>
      <trkpt lat="42.921351" lon="1.584155">
        <ele>1207.1</ele>
        <time>2013-02-10T08:57:19Z</time>
      </trkpt>
      <trkpt lat="42.921314" lon="1.584056">
        <ele>1207.1</ele>
        <time>2013-02-10T08:57:36Z</time>
      </trkpt>
      <trkpt lat="42.921282" lon="1.583934">
        <ele>1206.1</ele>
        <time>2013-02-10T08:57:44Z</time>
      </trkpt>
      <trkpt lat="42.921262" lon="1.583820">
        <ele>1205.6</ele>
        <time>2013-02-10T08:57:52Z</time>
      </trkpt>
      <trkpt lat="42.921227" lon="1.583693">
        <ele>1205.6</ele>
        <time>2013-02-10T08:58:00Z</time>
      </trkpt>
      <trkpt lat="42.921189" lon="1.583566">
        <ele>1205.6</ele>
        <time>2013-02-10T08:58:08Z</time>
      </trkpt>
      <trkpt lat="42.921139" lon="1.583437">
        <ele>1204.2</ele>
        <time>2013-02-10T08:58:16Z</time>
      </trkpt>
      <trkpt lat="42.921087" lon="1.583329">
        <ele>1204.7</ele>
        <time>2013-02-10T08:58:24Z</time>
      </trkpt>
      <trkpt lat="42.921026" lon="1.583221">
        <ele>1204.7</ele>
        <time>2013-02-10T08:58:33Z</time>
      </trkpt>
      <trkpt lat="42.920954" lon="1.583131">
        <ele>1204.2</ele>
        <time>2013-02-10T08:58:41Z</time>
      </trkpt>
      <trkpt lat="42.920898" lon="1.583029">
        <ele>1203.7</ele>
        <time>2013-02-10T08:58:49Z</time>
      </trkpt>
      <trkpt lat="42.920851" lon="1.582932">
        <ele>1206.6</ele>
        <time>2013-02-10T08:58:57Z</time>
      </trkpt>
      <trkpt lat="42.920800" lon="1.582829">
        <ele>1205.6</ele>
        <time>2013-02-10T08:59:05Z</time>
      </trkpt>
      <trkpt lat="42.920749" lon="1.582714">
        <ele>1205.2</ele>
        <time>2013-02-10T08:59:12Z</time>
      </trkpt>
      <trkpt lat="42.920695" lon="1.582599">
        <ele>1205.6</ele>
        <time>2013-02-10T08:59:20Z</time>
      </trkpt>
      <trkpt lat="42.920644" lon="1.582483">
        <ele>1205.6</ele>
        <time>2013-02-10T08:59:28Z</time>
      </trkpt>
      <trkpt lat="42.920593" lon="1.582372">
        <ele>1205.6</ele>
        <time>2013-02-10T08:59:38Z</time>
      </trkpt>
      <trkpt lat="42.920548" lon="1.582254">
        <ele>1205.2</ele>
        <time>2013-02-10T08:59:48Z</time>
      </trkpt>
      <trkpt lat="42.920500" lon="1.582134">
        <ele>1206.6</ele>
        <time>2013-02-10T08:59:59Z</time>
      </trkpt>
      <trkpt lat="42.920463" lon="1.582010">
        <ele>1207.1</ele>
        <time>2013-02-10T09:00:09Z</time>
      </trkpt>
      <trkpt lat="42.920430" lon="1.581896">
        <ele>1207.6</ele>
        <time>2013-02-10T09:00:19Z</time>
      </trkpt>
      <trkpt lat="42.920392" lon="1.581783">
        <ele>1208.5</ele>
        <time>2013-02-10T09:00:29Z</time>
      </trkpt>
      <trkpt lat="42.920358" lon="1.581666">
        <ele>1209.5</ele>
        <time>2013-02-10T09:00:40Z</time>
      </trkpt>
      <trkpt lat="42.920318" lon="1.581549">
        <ele>1209.5</ele>
        <time>2013-02-10T09:00:51Z</time>
      </trkpt>
      <trkpt lat="42.920276" lon="1.581436">
        <ele>1210.4</ele>
        <time>2013-02-10T09:01:01Z</time>
      </trkpt>
      <trkpt lat="42.920247" lon="1.581320">
        <ele>1211.9</ele>
        <time>2013-02-10T09:01:13Z</time>
      </trkpt>
      <trkpt lat="42.920214" lon="1.581202">
        <ele>1212.8</ele>
        <time>2013-02-10T09:01:24Z</time>
      </trkpt>
      <trkpt lat="42.920185" lon="1.581078">
        <ele>1212.4</ele>
        <time>2013-02-10T09:01:38Z</time>
      </trkpt>
      <trkpt lat="42.920142" lon="1.580963">
        <ele>1214.3</ele>
        <time>2013-02-10T09:01:54Z</time>
      </trkpt>
      <trkpt lat="42.920092" lon="1.580847">
        <ele>1215.2</ele>
        <time>2013-02-10T09:02:08Z</time>
      </trkpt>
      <trkpt lat="42.920056" lon="1.580723">
        <ele>1216.7</ele>
        <time>2013-02-10T09:02:23Z</time>
      </trkpt>
      <trkpt lat="42.920013" lon="1.580604">
        <ele>1218.6</ele>
        <time>2013-02-10T09:02:35Z</time>
      </trkpt>
      <trkpt lat="42.919976" lon="1.580494">
        <ele>1220.1</ele>
        <time>2013-02-10T09:02:50Z</time>
      </trkpt>
      <trkpt lat="42.919926" lon="1.580407">
        <ele>1221.5</ele>
        <time>2013-02-10T09:03:03Z</time>
      </trkpt>
      <trkpt lat="42.919860" lon="1.580330">
        <ele>1222.9</ele>
        <time>2013-02-10T09:03:18Z</time>
      </trkpt>
      <trkpt lat="42.919794" lon="1.580231">
        <ele>1224.9</ele>
        <time>2013-02-10T09:03:32Z</time>
      </trkpt>
      <trkpt lat="42.919737" lon="1.580136">
        <ele>1225.8</ele>
        <time>2013-02-10T09:03:46Z</time>
      </trkpt>
      <trkpt lat="42.919666" lon="1.580047">
        <ele>1227.7</ele>
        <time>2013-02-10T09:04:00Z</time>
      </trkpt>
      <trkpt lat="42.919589" lon="1.579965">
        <ele>1228.2</ele>
        <time>2013-02-10T09:04:13Z</time>
      </trkpt>
      <trkpt lat="42.919542" lon="1.579888">
        <ele>1229.2</ele>
        <time>2013-02-10T09:04:27Z</time>
      </trkpt>
      <trkpt lat="42.919475" lon="1.579814">
        <ele>1231.6</ele>
        <time>2013-02-10T09:04:40Z</time>
      </trkpt>
      <trkpt lat="42.919451" lon="1.579818">
        <ele>1231.6</ele>
        <time>2013-02-10T09:07:04Z</time>
        <name>Cab. Prat d Albis</name>
      </trkpt>
      <trkpt lat="42.919403" lon="1.579763">
        <ele>1232.6</ele>
        <time>2013-02-10T09:08:53Z</time>
      </trkpt>
      <trkpt lat="42.919386" lon="1.579633">
        <ele>1234.9</ele>
        <time>2013-02-10T09:09:27Z</time>
      </trkpt>
      <trkpt lat="42.919369" lon="1.579519">
        <ele>1237.8</ele>
        <time>2013-02-10T09:09:38Z</time>
      </trkpt>
      <trkpt lat="42.919378" lon="1.579406">
        <ele>1240.2</ele>
        <time>2013-02-10T09:09:52Z</time>
      </trkpt>
      <trkpt lat="42.919409" lon="1.579283">
        <ele>1242.6</ele>
        <time>2013-02-10T09:10:02Z</time>
      </trkpt>
      <trkpt lat="42.919372" lon="1.579158">
        <ele>1244.1</ele>
        <time>2013-02-10T09:10:13Z</time>
      </trkpt>
      <trkpt lat="42.919335" lon="1.579047">
        <ele>1246.5</ele>
        <time>2013-02-10T09:10:24Z</time>
      </trkpt>
      <trkpt lat="42.919305" lon="1.578940">
        <ele>1249.4</ele>
        <time>2013-02-10T09:10:35Z</time>
      </trkpt>
      <trkpt lat="42.919254" lon="1.578833">
        <ele>1250.8</ele>
        <time>2013-02-10T09:10:46Z</time>
      </trkpt>
      <trkpt lat="42.919208" lon="1.578725">
        <ele>1253.2</ele>
        <time>2013-02-10T09:10:56Z</time>
      </trkpt>
      <trkpt lat="42.919144" lon="1.578643">
        <ele>1254.7</ele>
        <time>2013-02-10T09:11:06Z</time>
      </trkpt>
      <trkpt lat="42.919084" lon="1.578541">
        <ele>1256.1</ele>
        <time>2013-02-10T09:11:16Z</time>
      </trkpt>
      <trkpt lat="42.919039" lon="1.578424">
        <ele>1256.6</ele>
        <time>2013-02-10T09:11:35Z</time>
      </trkpt>
      <trkpt lat="42.919017" lon="1.578302">
        <ele>1259.0</ele>
        <time>2013-02-10T09:11:45Z</time>
      </trkpt>
      <trkpt lat="42.918991" lon="1.578174">
        <ele>1259.5</ele>
        <time>2013-02-10T09:11:56Z</time>
      </trkpt>
      <trkpt lat="42.918954" lon="1.578068">
        <ele>1259.9</ele>
        <time>2013-02-10T09:12:08Z</time>
      </trkpt>
      <trkpt lat="42.918944" lon="1.577918">
        <ele>1260.9</ele>
        <time>2013-02-10T09:12:20Z</time>
      </trkpt>
      <trkpt lat="42.918978" lon="1.577776">
        <ele>1260.9</ele>
        <time>2013-02-10T09:12:34Z</time>
      </trkpt>
      <trkpt lat="42.919008" lon="1.577659">
        <ele>1262.8</ele>
        <time>2013-02-10T09:12:46Z</time>
      </trkpt>
      <trkpt lat="42.918987" lon="1.577551">
        <ele>1263.3</ele>
        <time>2013-02-10T09:12:57Z</time>
      </trkpt>
      <trkpt lat="42.918989" lon="1.577421">
        <ele>1263.8</ele>
        <time>2013-02-10T09:13:07Z</time>
      </trkpt>
      <trkpt lat="42.919005" lon="1.577293">
        <ele>1264.3</ele>
        <time>2013-02-10T09:13:18Z</time>
      </trkpt>
      <trkpt lat="42.918990" lon="1.577183">
        <ele>1264.8</ele>
        <time>2013-02-10T09:13:29Z</time>
      </trkpt>
      <trkpt lat="42.918976" lon="1.577053">
        <ele>1265.2</ele>
        <time>2013-02-10T09:13:40Z</time>
      </trkpt>
      <trkpt lat="42.918978" lon="1.576914">
        <ele>1265.7</ele>
        <time>2013-02-10T09:13:51Z</time>
      </trkpt>
      <trkpt lat="42.918957" lon="1.576784">
        <ele>1265.7</ele>
        <time>2013-02-10T09:14:02Z</time>
      </trkpt>
      <trkpt lat="42.918948" lon="1.576672">
        <ele>1267.2</ele>
        <time>2013-02-10T09:14:14Z</time>
      </trkpt>
      <trkpt lat="42.918924" lon="1.576535">
        <ele>1268.1</ele>
        <time>2013-02-10T09:14:26Z</time>
      </trkpt>
      <trkpt lat="42.918907" lon="1.576410">
        <ele>1269.1</ele>
        <time>2013-02-10T09:14:37Z</time>
      </trkpt>
      <trkpt lat="42.918889" lon="1.576278">
        <ele>1270.5</ele>
        <time>2013-02-10T09:14:49Z</time>
      </trkpt>
      <trkpt lat="42.918869" lon="1.576159">
        <ele>1270.0</ele>
        <time>2013-02-10T09:15:01Z</time>
      </trkpt>
      <trkpt lat="42.918827" lon="1.576040">
        <ele>1271.5</ele>
        <time>2013-02-10T09:15:11Z</time>
      </trkpt>
      <trkpt lat="42.918796" lon="1.575931">
        <ele>1271.5</ele>
        <time>2013-02-10T09:15:21Z</time>
      </trkpt>
      <trkpt lat="42.918758" lon="1.575811">
        <ele>1272.4</ele>
        <time>2013-02-10T09:15:33Z</time>
      </trkpt>
      <trkpt lat="42.918711" lon="1.575702">
        <ele>1273.4</ele>
        <time>2013-02-10T09:15:45Z</time>
      </trkpt>
      <trkpt lat="42.918650" lon="1.575600">
        <ele>1274.4</ele>
        <time>2013-02-10T09:15:56Z</time>
      </trkpt>
      <trkpt lat="42.918631" lon="1.575576">
        <ele>1274.8</ele>
        <time>2013-02-10T09:17:35Z</time>
      </trkpt>
      <trkpt lat="42.918614" lon="1.575534">
        <ele>1273.9</ele>
        <time>2013-02-10T09:21:20Z</time>
      </trkpt>
      <trkpt lat="42.918549" lon="1.575457">
        <ele>1272.9</ele>
        <time>2013-02-10T09:21:35Z</time>
      </trkpt>
      <trkpt lat="42.918499" lon="1.575367">
        <ele>1274.8</ele>
        <time>2013-02-10T09:21:47Z</time>
      </trkpt>
      <trkpt lat="42.918446" lon="1.575263">
        <ele>1275.3</ele>
        <time>2013-02-10T09:21:59Z</time>
      </trkpt>
      <trkpt lat="42.918388" lon="1.575197">
        <ele>1276.8</ele>
        <time>2013-02-10T09:22:12Z</time>
      </trkpt>
      <trkpt lat="42.918335" lon="1.575094">
        <ele>1278.7</ele>
        <time>2013-02-10T09:22:25Z</time>
      </trkpt>
      <trkpt lat="42.918274" lon="1.575009">
        <ele>1278.7</ele>
        <time>2013-02-10T09:22:41Z</time>
      </trkpt>
      <trkpt lat="42.918224" lon="1.574916">
        <ele>1280.6</ele>
        <time>2013-02-10T09:23:00Z</time>
      </trkpt>
      <trkpt lat="42.918184" lon="1.574830">
        <ele>1283.5</ele>
        <time>2013-02-10T09:23:21Z</time>
      </trkpt>
      <trkpt lat="42.918124" lon="1.574734">
        <ele>1285.4</ele>
        <time>2013-02-10T09:23:38Z</time>
      </trkpt>
      <trkpt lat="42.918084" lon="1.574644">
        <ele>1287.3</ele>
        <time>2013-02-10T09:23:55Z</time>
      </trkpt>
      <trkpt lat="42.918054" lon="1.574529">
        <ele>1287.8</ele>
        <time>2013-02-10T09:24:22Z</time>
      </trkpt>
      <trkpt lat="42.918030" lon="1.574439">
        <ele>1289.3</ele>
        <time>2013-02-10T09:24:37Z</time>
      </trkpt>
      <trkpt lat="42.917976" lon="1.574343">
        <ele>1289.8</ele>
        <time>2013-02-10T09:24:52Z</time>
      </trkpt>
      <trkpt lat="42.917924" lon="1.574244">
        <ele>1291.7</ele>
        <time>2013-02-10T09:25:09Z</time>
      </trkpt>
      <trkpt lat="42.917879" lon="1.574145">
        <ele>1294.1</ele>
        <time>2013-02-10T09:25:52Z</time>
      </trkpt>
      <trkpt lat="42.917825" lon="1.574056">
        <ele>1296.0</ele>
        <time>2013-02-10T09:26:11Z</time>
      </trkpt>
      <trkpt lat="42.917782" lon="1.573954">
        <ele>1297.9</ele>
        <time>2013-02-10T09:26:27Z</time>
      </trkpt>
      <trkpt lat="42.917716" lon="1.573838">
        <ele>1300.8</ele>
        <time>2013-02-10T09:26:43Z</time>
      </trkpt>
      <trkpt lat="42.917670" lon="1.573742">
        <ele>1303.7</ele>
        <time>2013-02-10T09:27:03Z</time>
      </trkpt>
      <trkpt lat="42.917613" lon="1.573656">
        <ele>1306.6</ele>
        <time>2013-02-10T09:27:20Z</time>
      </trkpt>
      <trkpt lat="42.917569" lon="1.573545">
        <ele>1309.9</ele>
        <time>2013-02-10T09:27:40Z</time>
      </trkpt>
      <trkpt lat="42.917512" lon="1.573444">
        <ele>1310.9</ele>
        <time>2013-02-10T09:27:56Z</time>
      </trkpt>
      <trkpt lat="42.917453" lon="1.573337">
        <ele>1312.8</ele>
        <time>2013-02-10T09:28:13Z</time>
      </trkpt>
      <trkpt lat="42.917398" lon="1.573215">
        <ele>1315.2</ele>
        <time>2013-02-10T09:28:31Z</time>
      </trkpt>
      <trkpt lat="42.917376" lon="1.573071">
        <ele>1317.6</ele>
        <time>2013-02-10T09:28:53Z</time>
      </trkpt>
      <trkpt lat="42.917341" lon="1.572934">
        <ele>1319.6</ele>
        <time>2013-02-10T09:29:13Z</time>
      </trkpt>
      <trkpt lat="42.917306" lon="1.572824">
        <ele>1322.9</ele>
        <time>2013-02-10T09:29:33Z</time>
      </trkpt>
      <trkpt lat="42.917222" lon="1.572848">
        <ele>1325.8</ele>
        <time>2013-02-10T09:29:50Z</time>
      </trkpt>
      <trkpt lat="42.917168" lon="1.572741">
        <ele>1328.2</ele>
        <time>2013-02-10T09:30:07Z</time>
      </trkpt>
      <trkpt lat="42.917141" lon="1.572614">
        <ele>1330.6</ele>
        <time>2013-02-10T09:30:24Z</time>
      </trkpt>
      <trkpt lat="42.917091" lon="1.572517">
        <ele>1333.5</ele>
        <time>2013-02-10T09:30:43Z</time>
      </trkpt>
      <trkpt lat="42.917054" lon="1.572417">
        <ele>1336.8</ele>
        <time>2013-02-10T09:31:04Z</time>
      </trkpt>
      <trkpt lat="42.916995" lon="1.572326">
        <ele>1338.3</ele>
        <time>2013-02-10T09:31:24Z</time>
      </trkpt>
      <trkpt lat="42.916936" lon="1.572249">
        <ele>1342.1</ele>
        <time>2013-02-10T09:31:43Z</time>
      </trkpt>
      <trkpt lat="42.916875" lon="1.572166">
        <ele>1344.5</ele>
        <time>2013-02-10T09:32:02Z</time>
      </trkpt>
      <trkpt lat="42.916835" lon="1.572058">
        <ele>1346.9</ele>
        <time>2013-02-10T09:32:18Z</time>
      </trkpt>
      <trkpt lat="42.916772" lon="1.571966">
        <ele>1349.8</ele>
        <time>2013-02-10T09:32:36Z</time>
      </trkpt>
      <trkpt lat="42.916689" lon="1.571962">
        <ele>1351.8</ele>
        <time>2013-02-10T09:32:51Z</time>
      </trkpt>
      <trkpt lat="42.916606" lon="1.571956">
        <ele>1353.7</ele>
        <time>2013-02-10T09:33:10Z</time>
      </trkpt>
      <trkpt lat="42.916553" lon="1.571858">
        <ele>1356.6</ele>
        <time>2013-02-10T09:34:25Z</time>
      </trkpt>
      <trkpt lat="42.916495" lon="1.571783">
        <ele>1359.0</ele>
        <time>2013-02-10T09:34:45Z</time>
      </trkpt>
      <trkpt lat="42.916433" lon="1.571683">
        <ele>1361.4</ele>
        <time>2013-02-10T09:35:03Z</time>
      </trkpt>
      <trkpt lat="42.916366" lon="1.571611">
        <ele>1362.8</ele>
        <time>2013-02-10T09:37:02Z</time>
      </trkpt>
      <trkpt lat="42.916325" lon="1.571506">
        <ele>1364.7</ele>
        <time>2013-02-10T09:37:17Z</time>
      </trkpt>
      <trkpt lat="42.916239" lon="1.571446">
        <ele>1368.1</ele>
        <time>2013-02-10T09:37:33Z</time>
      </trkpt>
      <trkpt lat="42.916199" lon="1.571325">
        <ele>1370.5</ele>
        <time>2013-02-10T09:37:47Z</time>
      </trkpt>
      <trkpt lat="42.916113" lon="1.571337">
        <ele>1372.4</ele>
        <time>2013-02-10T09:38:01Z</time>
      </trkpt>
      <trkpt lat="42.916035" lon="1.571297">
        <ele>1374.8</ele>
        <time>2013-02-10T09:38:15Z</time>
      </trkpt>
      <trkpt lat="42.915950" lon="1.571228">
        <ele>1374.8</ele>
        <time>2013-02-10T09:38:31Z</time>
      </trkpt>
      <trkpt lat="42.915931" lon="1.571094">
        <ele>1379.6</ele>
        <time>2013-02-10T09:38:47Z</time>
      </trkpt>
      <trkpt lat="42.915937" lon="1.570974">
        <ele>1380.6</ele>
        <time>2013-02-10T09:39:03Z</time>
      </trkpt>
      <trkpt lat="42.915916" lon="1.570852">
        <ele>1382.0</ele>
        <time>2013-02-10T09:39:17Z</time>
      </trkpt>
      <trkpt lat="42.915854" lon="1.570781">
        <ele>1383.5</ele>
        <time>2013-02-10T09:39:31Z</time>
      </trkpt>
      <trkpt lat="42.915792" lon="1.570710">
        <ele>1384.9</ele>
        <time>2013-02-10T09:39:46Z</time>
      </trkpt>
      <trkpt lat="42.915739" lon="1.570602">
        <ele>1383.5</ele>
        <time>2013-02-10T09:39:59Z</time>
      </trkpt>
      <trkpt lat="42.915708" lon="1.570484">
        <ele>1384.9</ele>
        <time>2013-02-10T09:40:13Z</time>
      </trkpt>
      <trkpt lat="42.915703" lon="1.570379">
        <ele>1385.4</ele>
        <time>2013-02-10T09:42:47Z</time>
      </trkpt>
      <trkpt lat="42.915695" lon="1.570251">
        <ele>1385.9</ele>
        <time>2013-02-10T09:42:59Z</time>
      </trkpt>
      <trkpt lat="42.915678" lon="1.570120">
        <ele>1386.8</ele>
        <time>2013-02-10T09:43:09Z</time>
      </trkpt>
      <trkpt lat="42.915673" lon="1.569972">
        <ele>1387.3</ele>
        <time>2013-02-10T09:43:20Z</time>
      </trkpt>
      <trkpt lat="42.915676" lon="1.569839">
        <ele>1389.2</ele>
        <time>2013-02-10T09:43:30Z</time>
      </trkpt>
      <trkpt lat="42.915672" lon="1.569725">
        <ele>1389.2</ele>
        <time>2013-02-10T09:43:41Z</time>
      </trkpt>
      <trkpt lat="42.915669" lon="1.569594">
        <ele>1389.2</ele>
        <time>2013-02-10T09:43:53Z</time>
      </trkpt>
      <trkpt lat="42.915672" lon="1.569451">
        <ele>1389.2</ele>
        <time>2013-02-10T09:44:03Z</time>
      </trkpt>
      <trkpt lat="42.915675" lon="1.569317">
        <ele>1390.2</ele>
        <time>2013-02-10T09:44:14Z</time>
      </trkpt>
      <trkpt lat="42.915656" lon="1.569193">
        <ele>1390.7</ele>
        <time>2013-02-10T09:44:26Z</time>
      </trkpt>
      <trkpt lat="42.915636" lon="1.569051">
        <ele>1390.2</ele>
        <time>2013-02-10T09:44:37Z</time>
      </trkpt>
      <trkpt lat="42.915615" lon="1.568914">
        <ele>1393.1</ele>
        <time>2013-02-10T09:44:48Z</time>
      </trkpt>
      <trkpt lat="42.915598" lon="1.568793">
        <ele>1387.8</ele>
        <time>2013-02-10T09:44:59Z</time>
      </trkpt>
      <trkpt lat="42.915581" lon="1.568668">
        <ele>1388.8</ele>
        <time>2013-02-10T09:45:10Z</time>
      </trkpt>
      <trkpt lat="42.915547" lon="1.568542">
        <ele>1389.2</ele>
        <time>2013-02-10T09:45:21Z</time>
      </trkpt>
      <trkpt lat="42.915520" lon="1.568427">
        <ele>1390.7</ele>
        <time>2013-02-10T09:45:33Z</time>
      </trkpt>
      <trkpt lat="42.915485" lon="1.568310">
        <ele>1390.7</ele>
        <time>2013-02-10T09:45:46Z</time>
      </trkpt>
      <trkpt lat="42.915433" lon="1.568233">
        <ele>1391.7</ele>
        <time>2013-02-10T09:45:56Z</time>
      </trkpt>
      <trkpt lat="42.915384" lon="1.568136">
        <ele>1390.7</ele>
        <time>2013-02-10T09:46:06Z</time>
      </trkpt>
      <trkpt lat="42.915327" lon="1.568033">
        <ele>1386.4</ele>
        <time>2013-02-10T09:46:17Z</time>
      </trkpt>
      <trkpt lat="42.915265" lon="1.567930">
        <ele>1390.7</ele>
        <time>2013-02-10T09:46:28Z</time>
      </trkpt>
      <trkpt lat="42.915206" lon="1.567840">
        <ele>1394.1</ele>
        <time>2013-02-10T09:46:39Z</time>
      </trkpt>
      <trkpt lat="42.915156" lon="1.567730">
        <ele>1391.2</ele>
        <time>2013-02-10T09:46:50Z</time>
      </trkpt>
      <trkpt lat="42.915099" lon="1.567623">
        <ele>1391.7</ele>
        <time>2013-02-10T09:47:01Z</time>
      </trkpt>
      <trkpt lat="42.915056" lon="1.567516">
        <ele>1391.2</ele>
        <time>2013-02-10T09:47:13Z</time>
      </trkpt>
      <trkpt lat="42.915021" lon="1.567398">
        <ele>1386.4</ele>
        <time>2013-02-10T09:47:24Z</time>
      </trkpt>
      <trkpt lat="42.914971" lon="1.567283">
        <ele>1391.7</ele>
        <time>2013-02-10T09:47:37Z</time>
      </trkpt>
      <trkpt lat="42.914930" lon="1.567177">
        <ele>1390.2</ele>
        <time>2013-02-10T09:47:50Z</time>
      </trkpt>
      <trkpt lat="42.914897" lon="1.567058">
        <ele>1388.8</ele>
        <time>2013-02-10T09:48:04Z</time>
      </trkpt>
      <trkpt lat="42.914854" lon="1.566955">
        <ele>1394.5</ele>
        <time>2013-02-10T09:48:17Z</time>
      </trkpt>
      <trkpt lat="42.914811" lon="1.566845">
        <ele>1396.9</ele>
        <time>2013-02-10T09:48:31Z</time>
      </trkpt>
      <trkpt lat="42.914764" lon="1.566748">
        <ele>1398.9</ele>
        <time>2013-02-10T09:49:26Z</time>
      </trkpt>
      <trkpt lat="42.914731" lon="1.566635">
        <ele>1399.3</ele>
        <time>2013-02-10T09:49:38Z</time>
      </trkpt>
      <trkpt lat="42.914699" lon="1.566527">
        <ele>1400.3</ele>
        <time>2013-02-10T09:49:50Z</time>
      </trkpt>
      <trkpt lat="42.914687" lon="1.566393">
        <ele>1400.8</ele>
        <time>2013-02-10T09:50:02Z</time>
      </trkpt>
      <trkpt lat="42.914677" lon="1.566274">
        <ele>1400.8</ele>
        <time>2013-02-10T09:50:14Z</time>
      </trkpt>
      <trkpt lat="42.914672" lon="1.566152">
        <ele>1402.2</ele>
        <time>2013-02-10T09:50:25Z</time>
      </trkpt>
      <trkpt lat="42.914641" lon="1.566037">
        <ele>1403.7</ele>
        <time>2013-02-10T09:50:37Z</time>
      </trkpt>
      <trkpt lat="42.914624" lon="1.565918">
        <ele>1403.2</ele>
        <time>2013-02-10T09:50:50Z</time>
      </trkpt>
      <trkpt lat="42.914566" lon="1.565841">
        <ele>1406.6</ele>
        <time>2013-02-10T09:51:03Z</time>
      </trkpt>
      <trkpt lat="42.914543" lon="1.565695">
        <ele>1406.1</ele>
        <time>2013-02-10T09:51:16Z</time>
      </trkpt>
      <trkpt lat="42.914482" lon="1.565584">
        <ele>1408.0</ele>
        <time>2013-02-10T09:51:28Z</time>
      </trkpt>
      <trkpt lat="42.914449" lon="1.565476">
        <ele>1408.9</ele>
        <time>2013-02-10T09:51:40Z</time>
      </trkpt>
      <trkpt lat="42.914419" lon="1.565378">
        <ele>1410.4</ele>
        <time>2013-02-10T09:53:14Z</time>
      </trkpt>
      <trkpt lat="42.914381" lon="1.565301">
        <ele>1407.0</ele>
        <time>2013-02-10T09:53:33Z</time>
      </trkpt>
      <trkpt lat="42.914309" lon="1.565281">
        <ele>1410.9</ele>
        <time>2013-02-10T09:53:46Z</time>
      </trkpt>
      <trkpt lat="42.914216" lon="1.565246">
        <ele>1411.8</ele>
        <time>2013-02-10T09:53:55Z</time>
        <name>Cap Coume de l Orri</name>
      </trkpt>
      <trkpt lat="42.914123" lon="1.565282">
        <ele>1411.8</ele>
        <time>2013-02-10T09:54:04Z</time>
      </trkpt>
      <trkpt lat="42.914021" lon="1.565316">
        <ele>1411.8</ele>
        <time>2013-02-10T09:54:13Z</time>
      </trkpt>
      <trkpt lat="42.913923" lon="1.565373">
        <ele>1410.9</ele>
        <time>2013-02-10T09:54:21Z</time>
      </trkpt>
      <trkpt lat="42.913829" lon="1.565389">
        <ele>1409.9</ele>
        <time>2013-02-10T09:54:29Z</time>
      </trkpt>
      <trkpt lat="42.913726" lon="1.565396">
        <ele>1409.4</ele>
        <time>2013-02-10T09:54:38Z</time>
      </trkpt>
      <trkpt lat="42.913615" lon="1.565402">
        <ele>1408.5</ele>
        <time>2013-02-10T09:54:53Z</time>
      </trkpt>
      <trkpt lat="42.913517" lon="1.565403">
        <ele>1406.1</ele>
        <time>2013-02-10T09:55:01Z</time>
      </trkpt>
      <trkpt lat="42.913417" lon="1.565413">
        <ele>1404.6</ele>
        <time>2013-02-10T09:55:09Z</time>
      </trkpt>
      <trkpt lat="42.913319" lon="1.565420">
        <ele>1404.6</ele>
        <time>2013-02-10T09:55:17Z</time>
      </trkpt>
      <trkpt lat="42.913212" lon="1.565435">
        <ele>1402.7</ele>
        <time>2013-02-10T09:55:26Z</time>
      </trkpt>
      <trkpt lat="42.913117" lon="1.565449">
        <ele>1401.3</ele>
        <time>2013-02-10T09:55:54Z</time>
      </trkpt>
      <trkpt lat="42.913025" lon="1.565459">
        <ele>1399.8</ele>
        <time>2013-02-10T09:56:03Z</time>
      </trkpt>
      <trkpt lat="42.912927" lon="1.565479">
        <ele>1398.9</ele>
        <time>2013-02-10T09:56:11Z</time>
      </trkpt>
      <trkpt lat="42.912830" lon="1.565484">
        <ele>1396.9</ele>
        <time>2013-02-10T09:56:19Z</time>
      </trkpt>
      <trkpt lat="42.912734" lon="1.565511">
        <ele>1396.4</ele>
        <time>2013-02-10T09:56:28Z</time>
      </trkpt>
      <trkpt lat="42.912632" lon="1.565542">
        <ele>1396.0</ele>
        <time>2013-02-10T09:56:37Z</time>
      </trkpt>
      <trkpt lat="42.912526" lon="1.565562">
        <ele>1395.0</ele>
        <time>2013-02-10T09:56:45Z</time>
      </trkpt>
      <trkpt lat="42.912435" lon="1.565563">
        <ele>1395.5</ele>
        <time>2013-02-10T09:56:52Z</time>
      </trkpt>
      <trkpt lat="42.912328" lon="1.565574">
        <ele>1395.0</ele>
        <time>2013-02-10T09:57:00Z</time>
      </trkpt>
      <trkpt lat="42.912225" lon="1.565580">
        <ele>1394.5</ele>
        <time>2013-02-10T09:57:08Z</time>
      </trkpt>
      <trkpt lat="42.912127" lon="1.565612">
        <ele>1394.1</ele>
        <time>2013-02-10T09:57:16Z</time>
      </trkpt>
      <trkpt lat="42.912032" lon="1.565639">
        <ele>1394.1</ele>
        <time>2013-02-10T09:57:24Z</time>
      </trkpt>
      <trkpt lat="42.911945" lon="1.565691">
        <ele>1394.5</ele>
        <time>2013-02-10T09:57:38Z</time>
      </trkpt>
      <trkpt lat="42.911861" lon="1.565711">
        <ele>1389.7</ele>
        <time>2013-02-10T09:58:00Z</time>
      </trkpt>
      <trkpt lat="42.911771" lon="1.565699">
        <ele>1395.0</ele>
        <time>2013-02-10T09:58:11Z</time>
      </trkpt>
      <trkpt lat="42.911692" lon="1.565650">
        <ele>1395.0</ele>
        <time>2013-02-10T09:58:23Z</time>
      </trkpt>
      <trkpt lat="42.911596" lon="1.565677">
        <ele>1395.5</ele>
        <time>2013-02-10T09:58:37Z</time>
      </trkpt>
      <trkpt lat="42.911490" lon="1.565687">
        <ele>1397.4</ele>
        <time>2013-02-10T09:58:50Z</time>
      </trkpt>
      <trkpt lat="42.911401" lon="1.565722">
        <ele>1398.9</ele>
        <time>2013-02-10T09:59:08Z</time>
      </trkpt>
      <trkpt lat="42.911291" lon="1.565673">
        <ele>1391.0</ele>
        <time>2013-02-10T09:59:31Z</time>
      </trkpt>
      <trkpt lat="42.911223" lon="1.565578">
        <ele>1401.3</ele>
        <time>2013-02-10T09:59:42Z</time>
      </trkpt>
      <trkpt lat="42.911171" lon="1.565496">
        <ele>1403.2</ele>
        <time>2013-02-10T09:59:53Z</time>
      </trkpt>
      <trkpt lat="42.911115" lon="1.565395">
        <ele>1401.7</ele>
        <time>2013-02-10T10:00:04Z</time>
      </trkpt>
      <trkpt lat="42.911051" lon="1.565314">
        <ele>1401.3</ele>
        <time>2013-02-10T10:00:16Z</time>
      </trkpt>
      <trkpt lat="42.910997" lon="1.565228">
        <ele>1401.7</ele>
        <time>2013-02-10T10:00:30Z</time>
      </trkpt>
      <trkpt lat="42.910953" lon="1.565174">
        <ele>1401.7</ele>
        <time>2013-02-10T10:01:39Z</time>
      </trkpt>
      <trkpt lat="42.910884" lon="1.565115">
        <ele>1402.2</ele>
        <time>2013-02-10T10:01:50Z</time>
      </trkpt>
      <trkpt lat="42.910808" lon="1.565039">
        <ele>1401.3</ele>
        <time>2013-02-10T10:02:00Z</time>
      </trkpt>
      <trkpt lat="42.910732" lon="1.564961">
        <ele>1401.7</ele>
        <time>2013-02-10T10:02:10Z</time>
      </trkpt>
      <trkpt lat="42.910654" lon="1.564880">
        <ele>1401.7</ele>
        <time>2013-02-10T10:02:41Z</time>
      </trkpt>
      <trkpt lat="42.910574" lon="1.564808">
        <ele>1401.7</ele>
        <time>2013-02-10T10:02:52Z</time>
      </trkpt>
      <trkpt lat="42.910510" lon="1.564718">
        <ele>1400.8</ele>
        <time>2013-02-10T10:03:02Z</time>
      </trkpt>
      <trkpt lat="42.910447" lon="1.564627">
        <ele>1401.7</ele>
        <time>2013-02-10T10:03:14Z</time>
      </trkpt>
      <trkpt lat="42.910380" lon="1.564563">
        <ele>1402.2</ele>
        <time>2013-02-10T10:03:26Z</time>
      </trkpt>
      <trkpt lat="42.910286" lon="1.564523">
        <ele>1402.2</ele>
        <time>2013-02-10T10:03:42Z</time>
      </trkpt>
      <trkpt lat="42.910198" lon="1.564476">
        <ele>1403.2</ele>
        <time>2013-02-10T10:03:55Z</time>
      </trkpt>
      <trkpt lat="42.910121" lon="1.564414">
        <ele>1403.2</ele>
        <time>2013-02-10T10:04:05Z</time>
      </trkpt>
      <trkpt lat="42.910041" lon="1.564343">
        <ele>1403.7</ele>
        <time>2013-02-10T10:04:16Z</time>
      </trkpt>
      <trkpt lat="42.909960" lon="1.564268">
        <ele>1404.1</ele>
        <time>2013-02-10T10:04:28Z</time>
      </trkpt>
      <trkpt lat="42.909883" lon="1.564204">
        <ele>1405.6</ele>
        <time>2013-02-10T10:04:41Z</time>
      </trkpt>
      <trkpt lat="42.909805" lon="1.564132">
        <ele>1406.1</ele>
        <time>2013-02-10T10:04:55Z</time>
      </trkpt>
      <trkpt lat="42.909738" lon="1.564053">
        <ele>1408.0</ele>
        <time>2013-02-10T10:05:09Z</time>
      </trkpt>
      <trkpt lat="42.909647" lon="1.564007">
        <ele>1409.9</ele>
        <time>2013-02-10T10:05:31Z</time>
      </trkpt>
      <trkpt lat="42.909549" lon="1.564012">
        <ele>1411.3</ele>
        <time>2013-02-10T10:05:46Z</time>
      </trkpt>
      <trkpt lat="42.909469" lon="1.564040">
        <ele>1412.8</ele>
        <time>2013-02-10T10:06:06Z</time>
      </trkpt>
      <trkpt lat="42.909452" lon="1.563911">
        <ele>1413.3</ele>
        <time>2013-02-10T10:06:22Z</time>
      </trkpt>
      <trkpt lat="42.909363" lon="1.563865">
        <ele>1416.2</ele>
        <time>2013-02-10T10:06:37Z</time>
      </trkpt>
      <trkpt lat="42.909275" lon="1.563836">
        <ele>1418.1</ele>
        <time>2013-02-10T10:06:54Z</time>
      </trkpt>
      <trkpt lat="42.909186" lon="1.563787">
        <ele>1421.0</ele>
        <time>2013-02-10T10:07:13Z</time>
      </trkpt>
      <trkpt lat="42.909123" lon="1.563705">
        <ele>1423.4</ele>
        <time>2013-02-10T10:07:30Z</time>
      </trkpt>
      <trkpt lat="42.909034" lon="1.563711">
        <ele>1424.8</ele>
        <time>2013-02-10T10:08:13Z</time>
      </trkpt>
      <trkpt lat="42.908937" lon="1.563676">
        <ele>1426.7</ele>
        <time>2013-02-10T10:08:36Z</time>
      </trkpt>
      <trkpt lat="42.908866" lon="1.563644">
        <ele>1428.2</ele>
        <time>2013-02-10T10:08:51Z</time>
      </trkpt>
      <trkpt lat="42.908796" lon="1.563639">
        <ele>1430.6</ele>
        <time>2013-02-10T10:09:23Z</time>
      </trkpt>
      <trkpt lat="42.908712" lon="1.563573">
        <ele>1433.5</ele>
        <time>2013-02-10T10:09:40Z</time>
      </trkpt>
      <trkpt lat="42.908646" lon="1.563501">
        <ele>1435.9</ele>
        <time>2013-02-10T10:09:55Z</time>
      </trkpt>
      <trkpt lat="42.908564" lon="1.563441">
        <ele>1436.3</ele>
        <time>2013-02-10T10:10:09Z</time>
      </trkpt>
      <trkpt lat="42.908485" lon="1.563389">
        <ele>1438.3</ele>
        <time>2013-02-10T10:10:24Z</time>
      </trkpt>
      <trkpt lat="42.908403" lon="1.563353">
        <ele>1441.6</ele>
        <time>2013-02-10T10:10:40Z</time>
      </trkpt>
      <trkpt lat="42.908339" lon="1.563260">
        <ele>1440.7</ele>
        <time>2013-02-10T10:10:54Z</time>
      </trkpt>
      <trkpt lat="42.908280" lon="1.563164">
        <ele>1441.2</ele>
        <time>2013-02-10T10:11:08Z</time>
      </trkpt>
      <trkpt lat="42.908213" lon="1.563107">
        <ele>1444.5</ele>
        <time>2013-02-10T10:11:22Z</time>
      </trkpt>
      <trkpt lat="42.908136" lon="1.563018">
        <ele>1444.5</ele>
        <time>2013-02-10T10:11:37Z</time>
      </trkpt>
      <trkpt lat="42.908050" lon="1.562990">
        <ele>1447.9</ele>
        <time>2013-02-10T10:11:52Z</time>
      </trkpt>
      <trkpt lat="42.907970" lon="1.562920">
        <ele>1448.4</ele>
        <time>2013-02-10T10:12:06Z</time>
      </trkpt>
      <trkpt lat="42.907892" lon="1.562870">
        <ele>1449.8</ele>
        <time>2013-02-10T10:12:20Z</time>
      </trkpt>
      <trkpt lat="42.907812" lon="1.562834">
        <ele>1451.7</ele>
        <time>2013-02-10T10:12:35Z</time>
      </trkpt>
      <trkpt lat="42.907723" lon="1.562792">
        <ele>1453.7</ele>
        <time>2013-02-10T10:12:53Z</time>
      </trkpt>
      <trkpt lat="42.907642" lon="1.562733">
        <ele>1456.1</ele>
        <time>2013-02-10T10:13:09Z</time>
      </trkpt>
      <trkpt lat="42.907565" lon="1.562665">
        <ele>1457.0</ele>
        <time>2013-02-10T10:13:23Z</time>
      </trkpt>
      <trkpt lat="42.907478" lon="1.562640">
        <ele>1458.9</ele>
        <time>2013-02-10T10:13:38Z</time>
      </trkpt>
      <trkpt lat="42.907396" lon="1.562605">
        <ele>1459.9</ele>
        <time>2013-02-10T10:13:53Z</time>
      </trkpt>
      <trkpt lat="42.907327" lon="1.562524">
        <ele>1459.4</ele>
        <time>2013-02-10T10:14:07Z</time>
      </trkpt>
      <trkpt lat="42.907254" lon="1.562457">
        <ele>1461.8</ele>
        <time>2013-02-10T10:14:21Z</time>
      </trkpt>
      <trkpt lat="42.907169" lon="1.562414">
        <ele>1463.3</ele>
        <time>2013-02-10T10:14:36Z</time>
      </trkpt>
      <trkpt lat="42.907080" lon="1.562382">
        <ele>1464.2</ele>
        <time>2013-02-10T10:14:49Z</time>
      </trkpt>
      <trkpt lat="42.906997" lon="1.562360">
        <ele>1466.6</ele>
        <time>2013-02-10T10:15:03Z</time>
      </trkpt>
      <trkpt lat="42.906903" lon="1.562354">
        <ele>1468.1</ele>
        <time>2013-02-10T10:15:17Z</time>
      </trkpt>
      <trkpt lat="42.906831" lon="1.562283">
        <ele>1468.6</ele>
        <time>2013-02-10T10:15:30Z</time>
      </trkpt>
      <trkpt lat="42.906761" lon="1.562214">
        <ele>1471.4</ele>
        <time>2013-02-10T10:15:46Z</time>
      </trkpt>
      <trkpt lat="42.906667" lon="1.562226">
        <ele>1473.8</ele>
        <time>2013-02-10T10:16:01Z</time>
      </trkpt>
      <trkpt lat="42.906586" lon="1.562184">
        <ele>1475.8</ele>
        <time>2013-02-10T10:16:15Z</time>
      </trkpt>
      <trkpt lat="42.906510" lon="1.562116">
        <ele>1477.2</ele>
        <time>2013-02-10T10:16:31Z</time>
      </trkpt>
      <trkpt lat="42.906434" lon="1.562075">
        <ele>1481.5</ele>
        <time>2013-02-10T10:16:48Z</time>
      </trkpt>
      <trkpt lat="42.906349" lon="1.562057">
        <ele>1483.9</ele>
        <time>2013-02-10T10:17:04Z</time>
      </trkpt>
      <trkpt lat="42.906269" lon="1.562047">
        <ele>1486.8</ele>
        <time>2013-02-10T10:17:20Z</time>
      </trkpt>
      <trkpt lat="42.906185" lon="1.562012">
        <ele>1488.3</ele>
        <time>2013-02-10T10:17:34Z</time>
      </trkpt>
      <trkpt lat="42.906094" lon="1.561980">
        <ele>1490.2</ele>
        <time>2013-02-10T10:17:49Z</time>
      </trkpt>
      <trkpt lat="42.906024" lon="1.561911">
        <ele>1492.1</ele>
        <time>2013-02-10T10:18:19Z</time>
      </trkpt>
      <trkpt lat="42.905935" lon="1.561877">
        <ele>1494.0</ele>
        <time>2013-02-10T10:18:34Z</time>
      </trkpt>
      <trkpt lat="42.905894" lon="1.561755">
        <ele>1494.0</ele>
        <time>2013-02-10T10:18:51Z</time>
        <name>Bout de Touron</name>
      </trkpt>
      <trkpt lat="42.905872" lon="1.561740">
        <ele>1492.1</ele>
        <time>2013-02-10T10:21:01Z</time>
      </trkpt>
      <trkpt lat="42.905857" lon="1.561765">
        <ele>1494.0</ele>
        <time>2013-02-10T10:25:58Z</time>
      </trkpt>
      <trkpt lat="42.905773" lon="1.561798">
        <ele>1493.1</ele>
        <time>2013-02-10T10:26:13Z</time>
      </trkpt>
      <trkpt lat="42.905698" lon="1.561845">
        <ele>1492.1</ele>
        <time>2013-02-10T10:26:28Z</time>
      </trkpt>
      <trkpt lat="42.905614" lon="1.561868">
        <ele>1491.1</ele>
        <time>2013-02-10T10:27:04Z</time>
      </trkpt>
      <trkpt lat="42.905545" lon="1.561938">
        <ele>1489.7</ele>
        <time>2013-02-10T10:27:16Z</time>
      </trkpt>
      <trkpt lat="42.905475" lon="1.562037">
        <ele>1488.7</ele>
        <time>2013-02-10T10:27:28Z</time>
      </trkpt>
      <trkpt lat="42.905415" lon="1.562124">
        <ele>1487.3</ele>
        <time>2013-02-10T10:27:39Z</time>
      </trkpt>
      <trkpt lat="42.905369" lon="1.562226">
        <ele>1486.3</ele>
        <time>2013-02-10T10:27:49Z</time>
      </trkpt>
      <trkpt lat="42.905310" lon="1.562314">
        <ele>1484.4</ele>
        <time>2013-02-10T10:27:59Z</time>
      </trkpt>
      <trkpt lat="42.905251" lon="1.562401">
        <ele>1483.0</ele>
        <time>2013-02-10T10:28:11Z</time>
      </trkpt>
      <trkpt lat="42.905217" lon="1.562510">
        <ele>1481.5</ele>
        <time>2013-02-10T10:28:23Z</time>
      </trkpt>
      <trkpt lat="42.905172" lon="1.562622">
        <ele>1480.1</ele>
        <time>2013-02-10T10:28:32Z</time>
      </trkpt>
      <trkpt lat="42.905121" lon="1.562732">
        <ele>1480.1</ele>
        <time>2013-02-10T10:28:41Z</time>
      </trkpt>
      <trkpt lat="42.905063" lon="1.562841">
        <ele>1478.2</ele>
        <time>2013-02-10T10:28:50Z</time>
      </trkpt>
      <trkpt lat="42.905022" lon="1.562945">
        <ele>1476.7</ele>
        <time>2013-02-10T10:28:59Z</time>
      </trkpt>
      <trkpt lat="42.904984" lon="1.563069">
        <ele>1475.3</ele>
        <time>2013-02-10T10:29:11Z</time>
      </trkpt>
      <trkpt lat="42.904935" lon="1.563187">
        <ele>1473.8</ele>
        <time>2013-02-10T10:29:20Z</time>
      </trkpt>
      <trkpt lat="42.904892" lon="1.563304">
        <ele>1472.4</ele>
        <time>2013-02-10T10:29:30Z</time>
      </trkpt>
      <trkpt lat="42.904842" lon="1.563409">
        <ele>1470.5</ele>
        <time>2013-02-10T10:29:39Z</time>
      </trkpt>
      <trkpt lat="42.904777" lon="1.563507">
        <ele>1468.6</ele>
        <time>2013-02-10T10:29:48Z</time>
      </trkpt>
      <trkpt lat="42.904719" lon="1.563599">
        <ele>1466.6</ele>
        <time>2013-02-10T10:29:56Z</time>
      </trkpt>
      <trkpt lat="42.904669" lon="1.563700">
        <ele>1464.7</ele>
        <time>2013-02-10T10:30:04Z</time>
      </trkpt>
      <trkpt lat="42.904622" lon="1.563807">
        <ele>1462.3</ele>
        <time>2013-02-10T10:30:12Z</time>
      </trkpt>
      <trkpt lat="42.904573" lon="1.563905">
        <ele>1460.9</ele>
        <time>2013-02-10T10:30:21Z</time>
      </trkpt>
      <trkpt lat="42.904514" lon="1.564016">
        <ele>1459.4</ele>
        <time>2013-02-10T10:30:30Z</time>
      </trkpt>
      <trkpt lat="42.904436" lon="1.564115">
        <ele>1457.5</ele>
        <time>2013-02-10T10:31:11Z</time>
      </trkpt>
      <trkpt lat="42.904378" lon="1.564195">
        <ele>1456.1</ele>
        <time>2013-02-10T10:31:22Z</time>
      </trkpt>
      <trkpt lat="42.904315" lon="1.564293">
        <ele>1454.6</ele>
        <time>2013-02-10T10:31:31Z</time>
      </trkpt>
      <trkpt lat="42.904249" lon="1.564380">
        <ele>1454.1</ele>
        <time>2013-02-10T10:31:39Z</time>
      </trkpt>
      <trkpt lat="42.904175" lon="1.564463">
        <ele>1453.2</ele>
        <time>2013-02-10T10:31:48Z</time>
      </trkpt>
      <trkpt lat="42.904096" lon="1.564529">
        <ele>1452.7</ele>
        <time>2013-02-10T10:31:57Z</time>
      </trkpt>
      <trkpt lat="42.904011" lon="1.564592">
        <ele>1451.2</ele>
        <time>2013-02-10T10:32:06Z</time>
      </trkpt>
      <trkpt lat="42.903916" lon="1.564650">
        <ele>1450.8</ele>
        <time>2013-02-10T10:32:15Z</time>
      </trkpt>
      <trkpt lat="42.903827" lon="1.564699">
        <ele>1449.8</ele>
        <time>2013-02-10T10:32:23Z</time>
      </trkpt>
      <trkpt lat="42.903741" lon="1.564729">
        <ele>1448.8</ele>
        <time>2013-02-10T10:32:31Z</time>
      </trkpt>
      <trkpt lat="42.903670" lon="1.564733">
        <ele>1449.3</ele>
        <time>2013-02-10T10:33:27Z</time>
      </trkpt>
      <trkpt lat="42.903617" lon="1.564767">
        <ele>1448.4</ele>
        <time>2013-02-10T10:34:24Z</time>
      </trkpt>
      <trkpt lat="42.903532" lon="1.564827">
        <ele>1448.8</ele>
        <time>2013-02-10T10:35:00Z</time>
      </trkpt>
      <trkpt lat="42.903469" lon="1.564848">
        <ele>1446.9</ele>
        <time>2013-02-10T10:35:32Z</time>
      </trkpt>
      <trkpt lat="42.903389" lon="1.564905">
        <ele>1446.9</ele>
        <time>2013-02-10T10:36:25Z</time>
      </trkpt>
      <trkpt lat="42.903297" lon="1.564949">
        <ele>1447.4</ele>
        <time>2013-02-10T10:36:33Z</time>
      </trkpt>
      <trkpt lat="42.903205" lon="1.564999">
        <ele>1446.4</ele>
        <time>2013-02-10T10:36:42Z</time>
      </trkpt>
      <trkpt lat="42.903120" lon="1.565052">
        <ele>1446.9</ele>
        <time>2013-02-10T10:36:51Z</time>
      </trkpt>
      <trkpt lat="42.903027" lon="1.565113">
        <ele>1446.4</ele>
        <time>2013-02-10T10:37:00Z</time>
      </trkpt>
      <trkpt lat="42.902929" lon="1.565172">
        <ele>1446.0</ele>
        <time>2013-02-10T10:37:10Z</time>
      </trkpt>
      <trkpt lat="42.902841" lon="1.565234">
        <ele>1446.0</ele>
        <time>2013-02-10T10:37:18Z</time>
      </trkpt>
      <trkpt lat="42.902754" lon="1.565324">
        <ele>1446.0</ele>
        <time>2013-02-10T10:37:27Z</time>
      </trkpt>
      <trkpt lat="42.902668" lon="1.565396">
        <ele>1446.0</ele>
        <time>2013-02-10T10:37:35Z</time>
      </trkpt>
      <trkpt lat="42.902581" lon="1.565466">
        <ele>1444.5</ele>
        <time>2013-02-10T10:37:44Z</time>
      </trkpt>
      <trkpt lat="42.902483" lon="1.565530">
        <ele>1441.6</ele>
        <time>2013-02-10T10:37:53Z</time>
      </trkpt>
      <trkpt lat="42.902394" lon="1.565586">
        <ele>1444.0</ele>
        <time>2013-02-10T10:38:02Z</time>
      </trkpt>
      <trkpt lat="42.902308" lon="1.565658">
        <ele>1443.6</ele>
        <time>2013-02-10T10:38:11Z</time>
      </trkpt>
      <trkpt lat="42.902225" lon="1.565704">
        <ele>1443.1</ele>
        <time>2013-02-10T10:38:19Z</time>
      </trkpt>
      <trkpt lat="42.902137" lon="1.565754">
        <ele>1443.6</ele>
        <time>2013-02-10T10:38:29Z</time>
      </trkpt>
      <trkpt lat="42.902053" lon="1.565824">
        <ele>1443.1</ele>
        <time>2013-02-10T10:38:37Z</time>
      </trkpt>
      <trkpt lat="42.901964" lon="1.565890">
        <ele>1442.1</ele>
        <time>2013-02-10T10:38:45Z</time>
      </trkpt>
      <trkpt lat="42.901884" lon="1.565970">
        <ele>1441.6</ele>
        <time>2013-02-10T10:38:53Z</time>
      </trkpt>
      <trkpt lat="42.901811" lon="1.566034">
        <ele>1440.7</ele>
        <time>2013-02-10T10:39:01Z</time>
      </trkpt>
      <trkpt lat="42.901738" lon="1.566118">
        <ele>1439.7</ele>
        <time>2013-02-10T10:39:10Z</time>
      </trkpt>
      <trkpt lat="42.901668" lon="1.566203">
        <ele>1438.3</ele>
        <time>2013-02-10T10:39:19Z</time>
      </trkpt>
      <trkpt lat="42.901606" lon="1.566281">
        <ele>1436.8</ele>
        <time>2013-02-10T10:39:35Z</time>
      </trkpt>
      <trkpt lat="42.901583" lon="1.566347">
        <ele>1436.3</ele>
        <time>2013-02-10T10:40:56Z</time>
      </trkpt>
      <trkpt lat="42.901602" lon="1.566326">
        <ele>1437.3</ele>
        <time>2013-02-10T10:43:11Z</time>
      </trkpt>
      <trkpt lat="42.901536" lon="1.566422">
        <ele>1435.9</ele>
        <time>2013-02-10T10:43:26Z</time>
      </trkpt>
      <trkpt lat="42.901491" lon="1.566534">
        <ele>1434.4</ele>
        <time>2013-02-10T10:43:36Z</time>
      </trkpt>
      <trkpt lat="42.901431" lon="1.566639">
        <ele>1433.0</ele>
        <time>2013-02-10T10:43:46Z</time>
      </trkpt>
      <trkpt lat="42.901369" lon="1.566734">
        <ele>1431.1</ele>
        <time>2013-02-10T10:43:56Z</time>
      </trkpt>
      <trkpt lat="42.901327" lon="1.566842">
        <ele>1429.1</ele>
        <time>2013-02-10T10:44:06Z</time>
      </trkpt>
      <trkpt lat="42.901279" lon="1.566962">
        <ele>1427.7</ele>
        <time>2013-02-10T10:44:17Z</time>
      </trkpt>
      <trkpt lat="42.901229" lon="1.567077">
        <ele>1426.7</ele>
        <time>2013-02-10T10:44:29Z</time>
      </trkpt>
      <trkpt lat="42.901185" lon="1.567198">
        <ele>1425.3</ele>
        <time>2013-02-10T10:44:42Z</time>
      </trkpt>
      <trkpt lat="42.901156" lon="1.567317">
        <ele>1424.3</ele>
        <time>2013-02-10T10:44:56Z</time>
      </trkpt>
      <trkpt lat="42.901116" lon="1.567427">
        <ele>1422.4</ele>
        <time>2013-02-10T10:45:06Z</time>
      </trkpt>
      <trkpt lat="42.901069" lon="1.567517">
        <ele>1420.5</ele>
        <time>2013-02-10T10:45:16Z</time>
      </trkpt>
      <trkpt lat="42.901016" lon="1.567627">
        <ele>1419.0</ele>
        <time>2013-02-10T10:45:26Z</time>
      </trkpt>
      <trkpt lat="42.900977" lon="1.567728">
        <ele>1417.1</ele>
        <time>2013-02-10T10:45:36Z</time>
      </trkpt>
      <trkpt lat="42.900922" lon="1.567826">
        <ele>1416.2</ele>
        <time>2013-02-10T10:45:48Z</time>
      </trkpt>
      <trkpt lat="42.900866" lon="1.567938">
        <ele>1414.2</ele>
        <time>2013-02-10T10:45:59Z</time>
      </trkpt>
      <trkpt lat="42.900814" lon="1.568058">
        <ele>1413.3</ele>
        <time>2013-02-10T10:46:10Z</time>
      </trkpt>
      <trkpt lat="42.900775" lon="1.568169">
        <ele>1411.8</ele>
        <time>2013-02-10T10:46:20Z</time>
      </trkpt>
      <trkpt lat="42.900743" lon="1.568288">
        <ele>1409.4</ele>
        <time>2013-02-10T10:46:30Z</time>
      </trkpt>
      <trkpt lat="42.900718" lon="1.568426">
        <ele>1408.0</ele>
        <time>2013-02-10T10:46:41Z</time>
      </trkpt>
      <trkpt lat="42.900668" lon="1.568546">
        <ele>1406.6</ele>
        <time>2013-02-10T10:46:52Z</time>
      </trkpt>
      <trkpt lat="42.900617" lon="1.568666">
        <ele>1405.6</ele>
        <time>2013-02-10T10:47:02Z</time>
      </trkpt>
      <trkpt lat="42.900573" lon="1.568785">
        <ele>1404.6</ele>
        <time>2013-02-10T10:47:13Z</time>
      </trkpt>
      <trkpt lat="42.900537" lon="1.568896">
        <ele>1403.2</ele>
        <time>2013-02-10T10:47:23Z</time>
      </trkpt>
      <trkpt lat="42.900487" lon="1.569022">
        <ele>1402.7</ele>
        <time>2013-02-10T10:47:36Z</time>
      </trkpt>
      <trkpt lat="42.900443" lon="1.569150">
        <ele>1401.7</ele>
        <time>2013-02-10T10:47:53Z</time>
      </trkpt>
      <trkpt lat="42.900392" lon="1.569268">
        <ele>1400.3</ele>
        <time>2013-02-10T10:48:03Z</time>
      </trkpt>
      <trkpt lat="42.900348" lon="1.569399">
        <ele>1399.8</ele>
        <time>2013-02-10T10:48:15Z</time>
      </trkpt>
      <trkpt lat="42.900290" lon="1.569532">
        <ele>1397.9</ele>
        <time>2013-02-10T10:48:28Z</time>
      </trkpt>
      <trkpt lat="42.900239" lon="1.569669">
        <ele>1397.9</ele>
        <time>2013-02-10T10:48:42Z</time>
      </trkpt>
      <trkpt lat="42.900189" lon="1.569785">
        <ele>1397.9</ele>
        <time>2013-02-10T10:48:52Z</time>
      </trkpt>
      <trkpt lat="42.900134" lon="1.569912">
        <ele>1397.9</ele>
        <time>2013-02-10T10:49:04Z</time>
      </trkpt>
      <trkpt lat="42.900089" lon="1.570020">
        <ele>1396.9</ele>
        <time>2013-02-10T10:50:07Z</time>
      </trkpt>
      <trkpt lat="42.900038" lon="1.570133">
        <ele>1396.9</ele>
        <time>2013-02-10T10:50:19Z</time>
      </trkpt>
      <trkpt lat="42.899992" lon="1.570244">
        <ele>1396.4</ele>
        <time>2013-02-10T10:50:31Z</time>
      </trkpt>
      <trkpt lat="42.899957" lon="1.570365">
        <ele>1396.4</ele>
        <time>2013-02-10T10:50:44Z</time>
      </trkpt>
      <trkpt lat="42.899912" lon="1.570495">
        <ele>1396.0</ele>
        <time>2013-02-10T10:50:57Z</time>
      </trkpt>
      <trkpt lat="42.899863" lon="1.570615">
        <ele>1396.0</ele>
        <time>2013-02-10T10:51:11Z</time>
      </trkpt>
      <trkpt lat="42.899825" lon="1.570751">
        <ele>1395.0</ele>
        <time>2013-02-10T10:51:26Z</time>
      </trkpt>
      <trkpt lat="42.899767" lon="1.570848">
        <ele>1395.0</ele>
        <time>2013-02-10T10:51:39Z</time>
      </trkpt>
      <trkpt lat="42.899708" lon="1.570954">
        <ele>1395.0</ele>
        <time>2013-02-10T10:51:51Z</time>
      </trkpt>
      <trkpt lat="42.899656" lon="1.571060">
        <ele>1395.0</ele>
        <time>2013-02-10T10:52:07Z</time>
      </trkpt>
      <trkpt lat="42.899607" lon="1.571185">
        <ele>1394.1</ele>
        <time>2013-02-10T10:52:21Z</time>
      </trkpt>
      <trkpt lat="42.899612" lon="1.571293">
        <ele>1392.6</ele>
        <time>2013-02-10T10:52:45Z</time>
      </trkpt>
      <trkpt lat="42.899544" lon="1.571456">
        <ele>1391.7</ele>
        <time>2013-02-10T10:53:03Z</time>
      </trkpt>
      <trkpt lat="42.899506" lon="1.571757">
        <ele>1389.2</ele>
        <time>2013-02-10T10:53:33Z</time>
      </trkpt>
      <trkpt lat="42.899367" lon="1.571959">
        <ele>1388.3</ele>
        <time>2013-02-10T10:54:02Z</time>
      </trkpt>
      <trkpt lat="42.899345" lon="1.572176">
        <ele>1387.3</ele>
        <time>2013-02-10T10:56:48Z</time>
      </trkpt>
      <trkpt lat="42.899244" lon="1.572356">
        <ele>1384.9</ele>
        <time>2013-02-10T10:57:21Z</time>
      </trkpt>
      <trkpt lat="42.899099" lon="1.572425">
        <ele>1385.4</ele>
        <time>2013-02-10T10:57:37Z</time>
      </trkpt>
      <trkpt lat="42.898994" lon="1.572554">
        <ele>1383.5</ele>
        <time>2013-02-10T10:57:58Z</time>
      </trkpt>
      <trkpt lat="42.898991" lon="1.572779">
        <ele>1380.6</ele>
        <time>2013-02-10T10:58:17Z</time>
      </trkpt>
      <trkpt lat="42.898905" lon="1.573024">
        <ele>1377.2</ele>
        <time>2013-02-10T10:58:37Z</time>
      </trkpt>
      <trkpt lat="42.898838" lon="1.573192">
        <ele>1371.9</ele>
        <time>2013-02-10T10:58:57Z</time>
      </trkpt>
      <trkpt lat="42.898823" lon="1.573375">
        <ele>1367.1</ele>
        <time>2013-02-10T10:59:16Z</time>
      </trkpt>
      <trkpt lat="42.898847" lon="1.573558">
        <ele>1362.3</ele>
        <time>2013-02-10T10:59:40Z</time>
      </trkpt>
      <trkpt lat="42.898749" lon="1.573653">
        <ele>1359.0</ele>
        <time>2013-02-10T11:00:04Z</time>
      </trkpt>
      <trkpt lat="42.898723" lon="1.573866">
        <ele>1356.6</ele>
        <time>2013-02-10T11:00:23Z</time>
      </trkpt>
      <trkpt lat="42.898889" lon="1.574054">
        <ele>1352.7</ele>
        <time>2013-02-10T11:01:08Z</time>
      </trkpt>
      <trkpt lat="42.898941" lon="1.574283">
        <ele>1349.8</ele>
        <time>2013-02-10T11:01:45Z</time>
      </trkpt>
      <trkpt lat="42.899034" lon="1.574337">
        <ele>1349.3</ele>
        <time>2013-02-10T11:02:18Z</time>
      </trkpt>
      <trkpt lat="42.899087" lon="1.574452">
        <ele>1348.9</ele>
        <time>2013-02-10T11:02:36Z</time>
        <name>Cab. des Gardes</name>
      </trkpt>
      <trkpt lat="42.899174" lon="1.574516">
        <ele>1344.0</ele>
        <time>2013-02-10T12:20:38Z</time>
      </trkpt>
      <trkpt lat="42.899283" lon="1.574598">
        <ele>1350.8</ele>
        <time>2013-02-10T12:21:39Z</time>
      </trkpt>
      <trkpt lat="42.899448" lon="1.574659">
        <ele>1345.5</ele>
        <time>2013-02-10T12:21:57Z</time>
      </trkpt>
      <trkpt lat="42.899664" lon="1.574679">
        <ele>1340.2</ele>
        <time>2013-02-10T12:22:15Z</time>
      </trkpt>
      <trkpt lat="42.899863" lon="1.574597">
        <ele>1335.4</ele>
        <time>2013-02-10T12:22:30Z</time>
      </trkpt>
      <trkpt lat="42.900084" lon="1.574472">
        <ele>1332.0</ele>
        <time>2013-02-10T12:22:52Z</time>
      </trkpt>
      <trkpt lat="42.900611" lon="1.574045">
        <ele>1326.8</ele>
        <time>2013-02-10T12:23:44Z</time>
      </trkpt>
      <trkpt lat="42.900755" lon="1.574001">
        <ele>1323.9</ele>
        <time>2013-02-10T12:24:00Z</time>
      </trkpt>
      <trkpt lat="42.900865" lon="1.574074">
        <ele>1321.0</ele>
        <time>2013-02-10T12:24:12Z</time>
      </trkpt>
      <trkpt lat="42.901069" lon="1.574189">
        <ele>1317.1</ele>
        <time>2013-02-10T12:24:30Z</time>
      </trkpt>
      <trkpt lat="42.901379" lon="1.574223">
        <ele>1312.3</ele>
        <time>2013-02-10T12:25:16Z</time>
      </trkpt>
      <trkpt lat="42.901472" lon="1.574258">
        <ele>1309.4</ele>
        <time>2013-02-10T12:25:23Z</time>
      </trkpt>
      <trkpt lat="42.901597" lon="1.574325">
        <ele>1305.1</ele>
        <time>2013-02-10T12:25:34Z</time>
      </trkpt>
      <trkpt lat="42.901745" lon="1.574433">
        <ele>1301.8</ele>
        <time>2013-02-10T12:25:51Z</time>
      </trkpt>
      <trkpt lat="42.901794" lon="1.574566">
        <ele>1299.8</ele>
        <time>2013-02-10T12:26:02Z</time>
      </trkpt>
      <trkpt lat="42.901769" lon="1.574757">
        <ele>1298.4</ele>
        <time>2013-02-10T12:26:15Z</time>
      </trkpt>
      <trkpt lat="42.901869" lon="1.575012">
        <ele>1296.5</ele>
        <time>2013-02-10T12:26:31Z</time>
      </trkpt>
      <trkpt lat="42.901887" lon="1.575115">
        <ele>1295.0</ele>
        <time>2013-02-10T12:26:51Z</time>
      </trkpt>
      <trkpt lat="42.901870" lon="1.575283">
        <ele>1292.2</ele>
        <time>2013-02-10T12:27:08Z</time>
      </trkpt>
      <trkpt lat="42.901987" lon="1.575491">
        <ele>1290.2</ele>
        <time>2013-02-10T12:27:20Z</time>
      </trkpt>
      <trkpt lat="42.902023" lon="1.575676">
        <ele>1289.3</ele>
        <time>2013-02-10T12:27:33Z</time>
      </trkpt>
      <trkpt lat="42.902035" lon="1.575810">
        <ele>1288.8</ele>
        <time>2013-02-10T12:27:45Z</time>
      </trkpt>
      <trkpt lat="42.902083" lon="1.575999">
        <ele>1286.9</ele>
        <time>2013-02-10T12:28:00Z</time>
      </trkpt>
      <trkpt lat="42.902063" lon="1.576198">
        <ele>1286.9</ele>
        <time>2013-02-10T12:28:15Z</time>
      </trkpt>
      <trkpt lat="42.902018" lon="1.576346">
        <ele>1286.9</ele>
        <time>2013-02-10T12:28:24Z</time>
      </trkpt>
      <trkpt lat="42.902027" lon="1.576508">
        <ele>1286.4</ele>
        <time>2013-02-10T12:28:35Z</time>
      </trkpt>
      <trkpt lat="42.902030" lon="1.576751">
        <ele>1284.0</ele>
        <time>2013-02-10T12:28:48Z</time>
      </trkpt>
      <trkpt lat="42.902030" lon="1.576927">
        <ele>1281.6</ele>
        <time>2013-02-10T12:29:01Z</time>
      </trkpt>
      <trkpt lat="42.902045" lon="1.577183">
        <ele>1279.2</ele>
        <time>2013-02-10T12:29:17Z</time>
      </trkpt>
      <trkpt lat="42.902082" lon="1.577393">
        <ele>1274.8</ele>
        <time>2013-02-10T12:29:32Z</time>
      </trkpt>
      <trkpt lat="42.902118" lon="1.577496">
        <ele>1274.4</ele>
        <time>2013-02-10T12:30:02Z</time>
      </trkpt>
      <trkpt lat="42.902093" lon="1.577667">
        <ele>1272.0</ele>
        <time>2013-02-10T12:30:13Z</time>
      </trkpt>
      <trkpt lat="42.902077" lon="1.577798">
        <ele>1269.6</ele>
        <time>2013-02-10T12:30:23Z</time>
      </trkpt>
      <trkpt lat="42.902177" lon="1.577941">
        <ele>1268.6</ele>
        <time>2013-02-10T12:30:34Z</time>
      </trkpt>
      <trkpt lat="42.902216" lon="1.578095">
        <ele>1267.6</ele>
        <time>2013-02-10T12:30:46Z</time>
      </trkpt>
      <trkpt lat="42.902271" lon="1.578212">
        <ele>1266.2</ele>
        <time>2013-02-10T12:30:55Z</time>
      </trkpt>
      <trkpt lat="42.902341" lon="1.578354">
        <ele>1262.3</ele>
        <time>2013-02-10T12:31:08Z</time>
      </trkpt>
      <trkpt lat="42.902405" lon="1.578531">
        <ele>1258.5</ele>
        <time>2013-02-10T12:31:26Z</time>
      </trkpt>
      <trkpt lat="42.902477" lon="1.578651">
        <ele>1254.7</ele>
        <time>2013-02-10T12:31:37Z</time>
      </trkpt>
      <trkpt lat="42.902541" lon="1.578751">
        <ele>1251.8</ele>
        <time>2013-02-10T12:31:48Z</time>
      </trkpt>
      <trkpt lat="42.902635" lon="1.578836">
        <ele>1249.4</ele>
        <time>2013-02-10T12:31:58Z</time>
      </trkpt>
      <trkpt lat="42.902688" lon="1.578949">
        <ele>1246.5</ele>
        <time>2013-02-10T12:32:08Z</time>
      </trkpt>
      <trkpt lat="42.902766" lon="1.579089">
        <ele>1242.6</ele>
        <time>2013-02-10T12:32:24Z</time>
      </trkpt>
      <trkpt lat="42.902809" lon="1.579219">
        <ele>1239.8</ele>
        <time>2013-02-10T12:32:34Z</time>
      </trkpt>
      <trkpt lat="42.902879" lon="1.579310">
        <ele>1236.4</ele>
        <time>2013-02-10T12:32:44Z</time>
      </trkpt>
      <trkpt lat="42.902956" lon="1.579422">
        <ele>1233.5</ele>
        <time>2013-02-10T12:32:56Z</time>
      </trkpt>
      <trkpt lat="42.903014" lon="1.579549">
        <ele>1230.1</ele>
        <time>2013-02-10T12:33:07Z</time>
      </trkpt>
      <trkpt lat="42.903086" lon="1.579686">
        <ele>1228.7</ele>
        <time>2013-02-10T12:33:18Z</time>
      </trkpt>
      <trkpt lat="42.903160" lon="1.579805">
        <ele>1228.2</ele>
        <time>2013-02-10T12:33:30Z</time>
      </trkpt>
      <trkpt lat="42.903261" lon="1.579868">
        <ele>1228.7</ele>
        <time>2013-02-10T12:33:39Z</time>
      </trkpt>
      <trkpt lat="42.903364" lon="1.579943">
        <ele>1229.7</ele>
        <time>2013-02-10T12:33:50Z</time>
      </trkpt>
      <trkpt lat="42.903466" lon="1.579852">
        <ele>1226.8</ele>
        <time>2013-02-10T12:34:09Z</time>
      </trkpt>
      <trkpt lat="42.903650" lon="1.579759">
        <ele>1225.3</ele>
        <time>2013-02-10T12:34:43Z</time>
      </trkpt>
      <trkpt lat="42.903705" lon="1.579650">
        <ele>1220.1</ele>
        <time>2013-02-10T12:35:42Z</time>
      </trkpt>
      <trkpt lat="42.903826" lon="1.579602">
        <ele>1215.7</ele>
        <time>2013-02-10T12:35:57Z</time>
      </trkpt>
      <trkpt lat="42.904074" lon="1.579494">
        <ele>1211.4</ele>
        <time>2013-02-10T12:36:27Z</time>
      </trkpt>
      <trkpt lat="42.904182" lon="1.579329">
        <ele>1210.0</ele>
        <time>2013-02-10T12:36:49Z</time>
      </trkpt>
      <trkpt lat="42.904333" lon="1.579295">
        <ele>1207.6</ele>
        <time>2013-02-10T12:37:07Z</time>
      </trkpt>
      <trkpt lat="42.904449" lon="1.579376">
        <ele>1205.2</ele>
        <time>2013-02-10T12:37:18Z</time>
      </trkpt>
      <trkpt lat="42.904408" lon="1.579574">
        <ele>1202.3</ele>
        <time>2013-02-10T12:37:34Z</time>
      </trkpt>
      <trkpt lat="42.904473" lon="1.579735">
        <ele>1200.8</ele>
        <time>2013-02-10T12:37:43Z</time>
      </trkpt>
      <trkpt lat="42.904513" lon="1.579915">
        <ele>1199.4</ele>
        <time>2013-02-10T12:37:55Z</time>
      </trkpt>
      <trkpt lat="42.904520" lon="1.580086">
        <ele>1195.1</ele>
        <time>2013-02-10T12:38:09Z</time>
      </trkpt>
      <trkpt lat="42.904511" lon="1.580239">
        <ele>1193.1</ele>
        <time>2013-02-10T12:38:20Z</time>
      </trkpt>
      <trkpt lat="42.904494" lon="1.580407">
        <ele>1191.2</ele>
        <time>2013-02-10T12:38:31Z</time>
      </trkpt>
      <trkpt lat="42.904480" lon="1.580590">
        <ele>1189.3</ele>
        <time>2013-02-10T12:38:42Z</time>
      </trkpt>
      <trkpt lat="42.904520" lon="1.580743">
        <ele>1185.4</ele>
        <time>2013-02-10T12:38:56Z</time>
      </trkpt>
      <trkpt lat="42.904592" lon="1.580830">
        <ele>1182.1</ele>
        <time>2013-02-10T12:39:07Z</time>
      </trkpt>
      <trkpt lat="42.904579" lon="1.580939">
        <ele>1180.2</ele>
        <time>2013-02-10T12:39:17Z</time>
      </trkpt>
      <trkpt lat="42.904669" lon="1.581046">
        <ele>1181.1</ele>
        <time>2013-02-10T12:41:09Z</time>
      </trkpt>
      <trkpt lat="42.904706" lon="1.581217">
        <ele>1177.8</ele>
        <time>2013-02-10T12:41:46Z</time>
      </trkpt>
      <trkpt lat="42.904767" lon="1.581356">
        <ele>1173.9</ele>
        <time>2013-02-10T12:42:08Z</time>
      </trkpt>
      <trkpt lat="42.904866" lon="1.581377">
        <ele>1170.5</ele>
        <time>2013-02-10T12:42:37Z</time>
      </trkpt>
      <trkpt lat="42.904987" lon="1.581416">
        <ele>1166.2</ele>
        <time>2013-02-10T12:42:56Z</time>
      </trkpt>
      <trkpt lat="42.905096" lon="1.581536">
        <ele>1159.5</ele>
        <time>2013-02-10T12:43:22Z</time>
      </trkpt>
      <trkpt lat="42.905152" lon="1.581670">
        <ele>1153.2</ele>
        <time>2013-02-10T12:43:39Z</time>
      </trkpt>
      <trkpt lat="42.905293" lon="1.581729">
        <ele>1150.3</ele>
        <time>2013-02-10T12:44:23Z</time>
      </trkpt>
      <trkpt lat="42.905373" lon="1.581833">
        <ele>1144.1</ele>
        <time>2013-02-10T12:44:58Z</time>
      </trkpt>
      <trkpt lat="42.905502" lon="1.581945">
        <ele>1138.3</ele>
        <time>2013-02-10T12:45:23Z</time>
      </trkpt>
      <trkpt lat="42.905599" lon="1.581884">
        <ele>1135.0</ele>
        <time>2013-02-10T12:50:24Z</time>
      </trkpt>
      <trkpt lat="42.905776" lon="1.581821">
        <ele>1135.0</ele>
        <time>2013-02-10T12:51:02Z</time>
      </trkpt>
      <trkpt lat="42.905942" lon="1.581726">
        <ele>1134.5</ele>
        <time>2013-02-10T12:51:26Z</time>
      </trkpt>
      <trkpt lat="42.906091" lon="1.581620">
        <ele>1134.5</ele>
        <time>2013-02-10T12:51:43Z</time>
      </trkpt>
      <trkpt lat="42.906221" lon="1.581534">
        <ele>1134.0</ele>
        <time>2013-02-10T12:52:10Z</time>
      </trkpt>
      <trkpt lat="42.906336" lon="1.581554">
        <ele>1133.5</ele>
        <time>2013-02-10T12:52:25Z</time>
      </trkpt>
      <trkpt lat="42.906425" lon="1.581678">
        <ele>1133.5</ele>
        <time>2013-02-10T12:52:43Z</time>
      </trkpt>
      <trkpt lat="42.906515" lon="1.581786">
        <ele>1133.5</ele>
        <time>2013-02-10T12:53:00Z</time>
      </trkpt>
      <trkpt lat="42.906610" lon="1.581865">
        <ele>1133.1</ele>
        <time>2013-02-10T12:53:16Z</time>
      </trkpt>
      <trkpt lat="42.906706" lon="1.581998">
        <ele>1133.1</ele>
        <time>2013-02-10T12:53:35Z</time>
      </trkpt>
      <trkpt lat="42.906787" lon="1.582080">
        <ele>1133.1</ele>
        <time>2013-02-10T12:53:50Z</time>
      </trkpt>
      <trkpt lat="42.906882" lon="1.582182">
        <ele>1133.5</ele>
        <time>2013-02-10T12:54:04Z</time>
      </trkpt>
      <trkpt lat="42.906985" lon="1.582271">
        <ele>1133.5</ele>
        <time>2013-02-10T12:54:24Z</time>
      </trkpt>
      <trkpt lat="42.907077" lon="1.582368">
        <ele>1134.0</ele>
        <time>2013-02-10T12:54:42Z</time>
      </trkpt>
      <trkpt lat="42.907136" lon="1.582488">
        <ele>1133.1</ele>
        <time>2013-02-10T12:54:59Z</time>
      </trkpt>
      <trkpt lat="42.907273" lon="1.582581">
        <ele>1134.0</ele>
        <time>2013-02-10T12:55:18Z</time>
      </trkpt>
      <trkpt lat="42.907292" lon="1.582652">
        <ele>1134.5</ele>
        <time>2013-02-10T12:55:50Z</time>
      </trkpt>
      <trkpt lat="42.907366" lon="1.582802">
        <ele>1135.0</ele>
        <time>2013-02-10T12:56:10Z</time>
      </trkpt>
      <trkpt lat="42.907405" lon="1.582950">
        <ele>1137.4</ele>
        <time>2013-02-10T12:56:48Z</time>
      </trkpt>
      <trkpt lat="42.907580" lon="1.582957">
        <ele>1139.3</ele>
        <time>2013-02-10T12:57:47Z</time>
      </trkpt>
      <trkpt lat="42.907784" lon="1.583055">
        <ele>1143.6</ele>
        <time>2013-02-10T12:58:38Z</time>
      </trkpt>
      <trkpt lat="42.907921" lon="1.583132">
        <ele>1145.1</ele>
        <time>2013-02-10T12:59:10Z</time>
      </trkpt>
      <trkpt lat="42.908074" lon="1.583184">
        <ele>1147.0</ele>
        <time>2013-02-10T12:59:36Z</time>
      </trkpt>
      <trkpt lat="42.908115" lon="1.583408">
        <ele>1150.8</ele>
        <time>2013-02-10T13:02:23Z</time>
        <name>Carrefour</name>
      </trkpt>
      <trkpt lat="42.908180" lon="1.583499">
        <ele>1150.8</ele>
        <time>2013-02-10T13:02:39Z</time>
      </trkpt>
      <trkpt lat="42.908230" lon="1.583606">
        <ele>1151.3</ele>
        <time>2013-02-10T13:03:02Z</time>
      </trkpt>
      <trkpt lat="42.908222" lon="1.583731">
        <ele>1151.8</ele>
        <time>2013-02-10T13:04:57Z</time>
      </trkpt>
      <trkpt lat="42.908277" lon="1.583830">
        <ele>1152.8</ele>
        <time>2013-02-10T13:05:44Z</time>
      </trkpt>
      <trkpt lat="42.908303" lon="1.583940">
        <ele>1153.7</ele>
        <time>2013-02-10T13:06:08Z</time>
      </trkpt>
      <trkpt lat="42.908362" lon="1.584082">
        <ele>1155.2</ele>
        <time>2013-02-10T13:06:25Z</time>
      </trkpt>
      <trkpt lat="42.908406" lon="1.584231">
        <ele>1155.6</ele>
        <time>2013-02-10T13:06:39Z</time>
      </trkpt>
      <trkpt lat="42.908408" lon="1.584379">
        <ele>1156.1</ele>
        <time>2013-02-10T13:06:52Z</time>
      </trkpt>
      <trkpt lat="42.908413" lon="1.584509">
        <ele>1157.6</ele>
        <time>2013-02-10T13:07:04Z</time>
      </trkpt>
      <trkpt lat="42.908439" lon="1.584636">
        <ele>1158.1</ele>
        <time>2013-02-10T13:07:15Z</time>
      </trkpt>
      <trkpt lat="42.908475" lon="1.584746">
        <ele>1158.5</ele>
        <time>2013-02-10T13:07:26Z</time>
      </trkpt>
      <trkpt lat="42.908557" lon="1.584779">
        <ele>1160.0</ele>
        <time>2013-02-10T13:07:38Z</time>
      </trkpt>
      <trkpt lat="42.908653" lon="1.584773">
        <ele>1160.9</ele>
        <time>2013-02-10T13:07:50Z</time>
      </trkpt>
      <trkpt lat="42.908739" lon="1.584784">
        <ele>1161.4</ele>
        <time>2013-02-10T13:08:02Z</time>
      </trkpt>
      <trkpt lat="42.908815" lon="1.584859">
        <ele>1162.4</ele>
        <time>2013-02-10T13:08:14Z</time>
      </trkpt>
      <trkpt lat="42.908863" lon="1.584985">
        <ele>1163.8</ele>
        <time>2013-02-10T13:08:30Z</time>
      </trkpt>
      <trkpt lat="42.908886" lon="1.585108">
        <ele>1164.8</ele>
        <time>2013-02-10T13:08:42Z</time>
      </trkpt>
      <trkpt lat="42.908917" lon="1.585234">
        <ele>1165.7</ele>
        <time>2013-02-10T13:08:55Z</time>
      </trkpt>
      <trkpt lat="42.908925" lon="1.585353">
        <ele>1166.7</ele>
        <time>2013-02-10T13:09:06Z</time>
      </trkpt>
      <trkpt lat="42.908946" lon="1.585472">
        <ele>1167.7</ele>
        <time>2013-02-10T13:09:25Z</time>
      </trkpt>
      <trkpt lat="42.908967" lon="1.585595">
        <ele>1168.1</ele>
        <time>2013-02-10T13:09:36Z</time>
      </trkpt>
      <trkpt lat="42.909000" lon="1.585712">
        <ele>1169.6</ele>
        <time>2013-02-10T13:09:48Z</time>
      </trkpt>
      <trkpt lat="42.909032" lon="1.585833">
        <ele>1169.6</ele>
        <time>2013-02-10T13:10:01Z</time>
      </trkpt>
      <trkpt lat="42.909067" lon="1.585957">
        <ele>1170.5</ele>
        <time>2013-02-10T13:10:15Z</time>
      </trkpt>
      <trkpt lat="42.909088" lon="1.586073">
        <ele>1171.5</ele>
        <time>2013-02-10T13:10:27Z</time>
      </trkpt>
      <trkpt lat="42.909122" lon="1.586212">
        <ele>1172.0</ele>
        <time>2013-02-10T13:10:40Z</time>
      </trkpt>
      <trkpt lat="42.909156" lon="1.586347">
        <ele>1172.5</ele>
        <time>2013-02-10T13:10:51Z</time>
      </trkpt>
      <trkpt lat="42.909169" lon="1.586479">
        <ele>1172.9</ele>
        <time>2013-02-10T13:11:03Z</time>
      </trkpt>
      <trkpt lat="42.909209" lon="1.586613">
        <ele>1173.9</ele>
        <time>2013-02-10T13:11:14Z</time>
      </trkpt>
      <trkpt lat="42.909234" lon="1.586732">
        <ele>1174.4</ele>
        <time>2013-02-10T13:11:25Z</time>
      </trkpt>
      <trkpt lat="42.909261" lon="1.586847">
        <ele>1174.9</ele>
        <time>2013-02-10T13:11:35Z</time>
      </trkpt>
      <trkpt lat="42.909288" lon="1.586966">
        <ele>1175.8</ele>
        <time>2013-02-10T13:11:45Z</time>
      </trkpt>
      <trkpt lat="42.909321" lon="1.587091">
        <ele>1176.3</ele>
        <time>2013-02-10T13:11:55Z</time>
      </trkpt>
      <trkpt lat="42.909351" lon="1.587211">
        <ele>1176.3</ele>
        <time>2013-02-10T13:12:06Z</time>
      </trkpt>
      <trkpt lat="42.909386" lon="1.587323">
        <ele>1176.8</ele>
        <time>2013-02-10T13:12:20Z</time>
      </trkpt>
      <trkpt lat="42.909425" lon="1.587435">
        <ele>1177.3</ele>
        <time>2013-02-10T13:12:30Z</time>
      </trkpt>
      <trkpt lat="42.909463" lon="1.587553">
        <ele>1176.8</ele>
        <time>2013-02-10T13:12:39Z</time>
      </trkpt>
      <trkpt lat="42.909506" lon="1.587663">
        <ele>1177.3</ele>
        <time>2013-02-10T13:12:48Z</time>
      </trkpt>
      <trkpt lat="42.909552" lon="1.587777">
        <ele>1177.3</ele>
        <time>2013-02-10T13:12:58Z</time>
      </trkpt>
      <trkpt lat="42.909597" lon="1.587886">
        <ele>1177.8</ele>
        <time>2013-02-10T13:13:08Z</time>
      </trkpt>
      <trkpt lat="42.909646" lon="1.587991">
        <ele>1177.8</ele>
        <time>2013-02-10T13:13:17Z</time>
      </trkpt>
      <trkpt lat="42.909708" lon="1.588098">
        <ele>1178.2</ele>
        <time>2013-02-10T13:13:28Z</time>
      </trkpt>
      <trkpt lat="42.909778" lon="1.588175">
        <ele>1178.2</ele>
        <time>2013-02-10T13:13:38Z</time>
      </trkpt>
      <trkpt lat="42.909863" lon="1.588253">
        <ele>1178.7</ele>
        <time>2013-02-10T13:13:49Z</time>
      </trkpt>
      <trkpt lat="42.909943" lon="1.588290">
        <ele>1179.2</ele>
        <time>2013-02-10T13:14:00Z</time>
      </trkpt>
      <trkpt lat="42.910033" lon="1.588330">
        <ele>1179.2</ele>
        <time>2013-02-10T13:14:15Z</time>
      </trkpt>
      <trkpt lat="42.910127" lon="1.588334">
        <ele>1179.2</ele>
        <time>2013-02-10T13:14:27Z</time>
      </trkpt>
      <trkpt lat="42.910222" lon="1.588341">
        <ele>1178.2</ele>
        <time>2013-02-10T13:14:38Z</time>
      </trkpt>
      <trkpt lat="42.910324" lon="1.588358">
        <ele>1178.7</ele>
        <time>2013-02-10T13:14:48Z</time>
      </trkpt>
      <trkpt lat="42.910432" lon="1.588397">
        <ele>1179.2</ele>
        <time>2013-02-10T13:14:58Z</time>
      </trkpt>
      <trkpt lat="42.910524" lon="1.588450">
        <ele>1179.2</ele>
        <time>2013-02-10T13:15:08Z</time>
      </trkpt>
      <trkpt lat="42.910610" lon="1.588532">
        <ele>1179.2</ele>
        <time>2013-02-10T13:15:19Z</time>
      </trkpt>
      <trkpt lat="42.910671" lon="1.588641">
        <ele>1179.7</ele>
        <time>2013-02-10T13:15:30Z</time>
      </trkpt>
      <trkpt lat="42.910733" lon="1.588720">
        <ele>1179.7</ele>
        <time>2013-02-10T13:15:57Z</time>
      </trkpt>
      <trkpt lat="42.910796" lon="1.588819">
        <ele>1180.2</ele>
        <time>2013-02-10T13:16:07Z</time>
      </trkpt>
      <trkpt lat="42.910853" lon="1.588917">
        <ele>1180.6</ele>
        <time>2013-02-10T13:16:17Z</time>
      </trkpt>
      <trkpt lat="42.910921" lon="1.589027">
        <ele>1180.2</ele>
        <time>2013-02-10T13:16:27Z</time>
      </trkpt>
      <trkpt lat="42.910958" lon="1.589149">
        <ele>1179.7</ele>
        <time>2013-02-10T13:16:38Z</time>
      </trkpt>
      <trkpt lat="42.910994" lon="1.589278">
        <ele>1180.6</ele>
        <time>2013-02-10T13:16:50Z</time>
      </trkpt>
      <trkpt lat="42.911031" lon="1.589386">
        <ele>1180.2</ele>
        <time>2013-02-10T13:17:02Z</time>
      </trkpt>
      <trkpt lat="42.911086" lon="1.589496">
        <ele>1180.6</ele>
        <time>2013-02-10T13:17:14Z</time>
      </trkpt>
      <trkpt lat="42.911130" lon="1.589615">
        <ele>1181.1</ele>
        <time>2013-02-10T13:17:24Z</time>
      </trkpt>
      <trkpt lat="42.911165" lon="1.589733">
        <ele>1181.1</ele>
        <time>2013-02-10T13:17:36Z</time>
      </trkpt>
      <trkpt lat="42.911222" lon="1.589835">
        <ele>1181.1</ele>
        <time>2013-02-10T13:17:46Z</time>
      </trkpt>
      <trkpt lat="42.911263" lon="1.589949">
        <ele>1181.1</ele>
        <time>2013-02-10T13:17:57Z</time>
      </trkpt>
      <trkpt lat="42.911314" lon="1.590051">
        <ele>1181.1</ele>
        <time>2013-02-10T13:18:09Z</time>
      </trkpt>
      <trkpt lat="42.911366" lon="1.590163">
        <ele>1181.1</ele>
        <time>2013-02-10T13:18:21Z</time>
      </trkpt>
      <trkpt lat="42.911421" lon="1.590274">
        <ele>1181.1</ele>
        <time>2013-02-10T13:18:33Z</time>
      </trkpt>
      <trkpt lat="42.911453" lon="1.590414">
        <ele>1181.1</ele>
        <time>2013-02-10T13:18:45Z</time>
      </trkpt>
      <trkpt lat="42.911478" lon="1.590531">
        <ele>1181.1</ele>
        <time>2013-02-10T13:18:57Z</time>
      </trkpt>
      <trkpt lat="42.911496" lon="1.590660">
        <ele>1182.1</ele>
        <time>2013-02-10T13:19:08Z</time>
      </trkpt>
      <trkpt lat="42.911509" lon="1.590781">
        <ele>1181.6</ele>
        <time>2013-02-10T13:19:18Z</time>
      </trkpt>
      <trkpt lat="42.911548" lon="1.590901">
        <ele>1182.1</ele>
        <time>2013-02-10T13:19:28Z</time>
      </trkpt>
      <trkpt lat="42.911571" lon="1.591020">
        <ele>1182.1</ele>
        <time>2013-02-10T13:19:38Z</time>
      </trkpt>
      <trkpt lat="42.911575" lon="1.591148">
        <ele>1182.6</ele>
        <time>2013-02-10T13:19:49Z</time>
      </trkpt>
      <trkpt lat="42.911555" lon="1.591273">
        <ele>1183.0</ele>
        <time>2013-02-10T13:20:00Z</time>
      </trkpt>
      <trkpt lat="42.911550" lon="1.591393">
        <ele>1182.6</ele>
        <time>2013-02-10T13:20:12Z</time>
      </trkpt>
      <trkpt lat="42.911557" lon="1.591520">
        <ele>1183.5</ele>
        <time>2013-02-10T13:20:23Z</time>
      </trkpt>
      <trkpt lat="42.911548" lon="1.591647">
        <ele>1183.5</ele>
        <time>2013-02-10T13:20:35Z</time>
      </trkpt>
      <trkpt lat="42.911545" lon="1.591784">
        <ele>1183.5</ele>
        <time>2013-02-10T13:20:47Z</time>
      </trkpt>
      <trkpt lat="42.911588" lon="1.591900">
        <ele>1184.0</ele>
        <time>2013-02-10T13:21:00Z</time>
      </trkpt>
      <trkpt lat="42.911655" lon="1.591975">
        <ele>1185.4</ele>
        <time>2013-02-10T13:21:18Z</time>
      </trkpt>
      <trkpt lat="42.911699" lon="1.592096">
        <ele>1187.4</ele>
        <time>2013-02-10T13:21:30Z</time>
      </trkpt>
      <trkpt lat="42.911741" lon="1.592223">
        <ele>1187.4</ele>
        <time>2013-02-10T13:21:42Z</time>
      </trkpt>
      <trkpt lat="42.911783" lon="1.592328">
        <ele>1186.9</ele>
        <time>2013-02-10T13:21:52Z</time>
      </trkpt>
      <trkpt lat="42.911847" lon="1.592438">
        <ele>1187.8</ele>
        <time>2013-02-10T13:22:02Z</time>
      </trkpt>
      <trkpt lat="42.911919" lon="1.592514">
        <ele>1187.4</ele>
        <time>2013-02-10T13:22:11Z</time>
      </trkpt>
      <trkpt lat="42.911987" lon="1.592612">
        <ele>1186.4</ele>
        <time>2013-02-10T13:22:18Z</time>
      </trkpt>
      <trkpt lat="42.912069" lon="1.592700">
        <ele>1185.0</ele>
        <time>2013-02-10T13:22:24Z</time>
      </trkpt>
      <trkpt lat="42.912124" lon="1.592809">
        <ele>1182.6</ele>
        <time>2013-02-10T13:22:30Z</time>
      </trkpt>
      <trkpt lat="42.912188" lon="1.592812">
        <ele>1179.2</ele>
        <time>2013-02-10T13:25:53Z</time>
      </trkpt>
      <trkpt lat="42.912294" lon="1.592831">
        <ele>1178.7</ele>
        <time>2013-02-10T13:26:05Z</time>
      </trkpt>
      <trkpt lat="42.912405" lon="1.592855">
        <ele>1178.7</ele>
        <time>2013-02-10T13:26:16Z</time>
      </trkpt>
      <trkpt lat="42.912497" lon="1.592951">
        <ele>1178.7</ele>
        <time>2013-02-10T13:26:27Z</time>
      </trkpt>
      <trkpt lat="42.912570" lon="1.593077">
        <ele>1179.2</ele>
        <time>2013-02-10T13:26:37Z</time>
      </trkpt>
      <trkpt lat="42.912625" lon="1.593197">
        <ele>1179.7</ele>
        <time>2013-02-10T13:26:48Z</time>
      </trkpt>
      <trkpt lat="42.912688" lon="1.593303">
        <ele>1180.6</ele>
        <time>2013-02-10T13:26:59Z</time>
      </trkpt>
      <trkpt lat="42.912767" lon="1.593387">
        <ele>1179.7</ele>
        <time>2013-02-10T13:27:10Z</time>
      </trkpt>
      <trkpt lat="42.912854" lon="1.593459">
        <ele>1179.7</ele>
        <time>2013-02-10T13:27:19Z</time>
      </trkpt>
      <trkpt lat="42.912957" lon="1.593451">
        <ele>1179.2</ele>
        <time>2013-02-10T13:27:29Z</time>
      </trkpt>
      <trkpt lat="42.913060" lon="1.593435">
        <ele>1179.2</ele>
        <time>2013-02-10T13:27:40Z</time>
      </trkpt>
      <trkpt lat="42.913150" lon="1.593411">
        <ele>1178.2</ele>
        <time>2013-02-10T13:27:50Z</time>
      </trkpt>
      <trkpt lat="42.913250" lon="1.593370">
        <ele>1178.7</ele>
        <time>2013-02-10T13:28:00Z</time>
      </trkpt>
      <trkpt lat="42.913327" lon="1.593296">
        <ele>1177.3</ele>
        <time>2013-02-10T13:28:10Z</time>
      </trkpt>
      <trkpt lat="42.913416" lon="1.593233">
        <ele>1176.8</ele>
        <time>2013-02-10T13:28:20Z</time>
      </trkpt>
      <trkpt lat="42.913508" lon="1.593160">
        <ele>1175.8</ele>
        <time>2013-02-10T13:28:30Z</time>
      </trkpt>
      <trkpt lat="42.913595" lon="1.593077">
        <ele>1175.3</ele>
        <time>2013-02-10T13:28:41Z</time>
      </trkpt>
      <trkpt lat="42.913663" lon="1.592989">
        <ele>1174.4</ele>
        <time>2013-02-10T13:28:51Z</time>
      </trkpt>
      <trkpt lat="42.913764" lon="1.592924">
        <ele>1173.4</ele>
        <time>2013-02-10T13:29:01Z</time>
      </trkpt>
      <trkpt lat="42.913837" lon="1.592797">
        <ele>1172.5</ele>
        <time>2013-02-10T13:29:13Z</time>
      </trkpt>
      <trkpt lat="42.913903" lon="1.592649">
        <ele>1172.0</ele>
        <time>2013-02-10T13:29:26Z</time>
      </trkpt>
      <trkpt lat="42.913952" lon="1.592497">
        <ele>1171.5</ele>
        <time>2013-02-10T13:29:38Z</time>
      </trkpt>
      <trkpt lat="42.914009" lon="1.592310">
        <ele>1170.1</ele>
        <time>2013-02-10T13:29:52Z</time>
      </trkpt>
      <trkpt lat="42.914064" lon="1.592165">
        <ele>1169.6</ele>
        <time>2013-02-10T13:30:04Z</time>
      </trkpt>
      <trkpt lat="42.914124" lon="1.592024">
        <ele>1168.6</ele>
        <time>2013-02-10T13:30:17Z</time>
      </trkpt>
      <trkpt lat="42.914175" lon="1.591902">
        <ele>1167.7</ele>
        <time>2013-02-10T13:30:29Z</time>
      </trkpt>
      <trkpt lat="42.914235" lon="1.591729">
        <ele>1166.2</ele>
        <time>2013-02-10T13:30:45Z</time>
      </trkpt>
      <trkpt lat="42.914314" lon="1.591553">
        <ele>1165.7</ele>
        <time>2013-02-10T13:30:58Z</time>
      </trkpt>
      <trkpt lat="42.914367" lon="1.591390">
        <ele>1165.3</ele>
        <time>2013-02-10T13:31:12Z</time>
      </trkpt>
      <trkpt lat="42.914450" lon="1.591259">
        <ele>1164.3</ele>
        <time>2013-02-10T13:31:38Z</time>
      </trkpt>
      <trkpt lat="42.914505" lon="1.591114">
        <ele>1163.8</ele>
        <time>2013-02-10T13:31:52Z</time>
      </trkpt>
      <trkpt lat="42.914557" lon="1.590980">
        <ele>1163.8</ele>
        <time>2013-02-10T13:32:05Z</time>
      </trkpt>
      <trkpt lat="42.914608" lon="1.590827">
        <ele>1163.3</ele>
        <time>2013-02-10T13:32:20Z</time>
      </trkpt>
      <trkpt lat="42.914668" lon="1.590672">
        <ele>1162.8</ele>
        <time>2013-02-10T13:32:34Z</time>
      </trkpt>
      <trkpt lat="42.914725" lon="1.590515">
        <ele>1162.4</ele>
        <time>2013-02-10T13:32:47Z</time>
      </trkpt>
      <trkpt lat="42.914753" lon="1.590350">
        <ele>1161.9</ele>
        <time>2013-02-10T13:33:01Z</time>
      </trkpt>
      <trkpt lat="42.914788" lon="1.590192">
        <ele>1161.4</ele>
        <time>2013-02-10T13:33:15Z</time>
      </trkpt>
      <trkpt lat="42.914852" lon="1.590044">
        <ele>1160.4</ele>
        <time>2013-02-10T13:33:29Z</time>
      </trkpt>
      <trkpt lat="42.914926" lon="1.589871">
        <ele>1160.4</ele>
        <time>2013-02-10T13:33:43Z</time>
      </trkpt>
      <trkpt lat="42.914989" lon="1.589732">
        <ele>1158.1</ele>
        <time>2013-02-10T13:33:55Z</time>
      </trkpt>
      <trkpt lat="42.915081" lon="1.589578">
        <ele>1159.0</ele>
        <time>2013-02-10T13:34:09Z</time>
      </trkpt>
      <trkpt lat="42.915225" lon="1.589479">
        <ele>1158.1</ele>
        <time>2013-02-10T13:35:08Z</time>
      </trkpt>
      <trkpt lat="42.915242" lon="1.589328">
        <ele>1158.1</ele>
        <time>2013-02-10T13:35:20Z</time>
      </trkpt>
      <trkpt lat="42.915290" lon="1.589208">
        <ele>1157.6</ele>
        <time>2013-02-10T13:35:32Z</time>
      </trkpt>
      <trkpt lat="42.915347" lon="1.589081">
        <ele>1157.6</ele>
        <time>2013-02-10T13:35:44Z</time>
      </trkpt>
      <trkpt lat="42.915381" lon="1.588930">
        <ele>1157.1</ele>
        <time>2013-02-10T13:35:56Z</time>
      </trkpt>
      <trkpt lat="42.915443" lon="1.588783">
        <ele>1156.1</ele>
        <time>2013-02-10T13:36:10Z</time>
      </trkpt>
      <trkpt lat="42.915491" lon="1.588633">
        <ele>1155.6</ele>
        <time>2013-02-10T13:36:24Z</time>
      </trkpt>
      <trkpt lat="42.915550" lon="1.588472">
        <ele>1155.2</ele>
        <time>2013-02-10T13:36:38Z</time>
      </trkpt>
      <trkpt lat="42.915612" lon="1.588332">
        <ele>1154.2</ele>
        <time>2013-02-10T13:36:51Z</time>
      </trkpt>
      <trkpt lat="42.915673" lon="1.588185">
        <ele>1153.2</ele>
        <time>2013-02-10T13:37:03Z</time>
      </trkpt>
      <trkpt lat="42.915721" lon="1.588027">
        <ele>1151.8</ele>
        <time>2013-02-10T13:37:15Z</time>
      </trkpt>
      <trkpt lat="42.915799" lon="1.587910">
        <ele>1151.3</ele>
        <time>2013-02-10T13:37:26Z</time>
      </trkpt>
      <trkpt lat="42.915879" lon="1.587775">
        <ele>1150.3</ele>
        <time>2013-02-10T13:37:37Z</time>
      </trkpt>
      <trkpt lat="42.915944" lon="1.587652">
        <ele>1149.4</ele>
        <time>2013-02-10T13:37:47Z</time>
      </trkpt>
      <trkpt lat="42.916019" lon="1.587530">
        <ele>1148.9</ele>
        <time>2013-02-10T13:37:58Z</time>
      </trkpt>
      <trkpt lat="42.916084" lon="1.587391">
        <ele>1147.9</ele>
        <time>2013-02-10T13:38:08Z</time>
      </trkpt>
      <trkpt lat="42.916125" lon="1.587218">
        <ele>1147.5</ele>
        <time>2013-02-10T13:38:18Z</time>
      </trkpt>
      <trkpt lat="42.916164" lon="1.587060">
        <ele>1147.0</ele>
        <time>2013-02-10T13:38:28Z</time>
      </trkpt>
      <trkpt lat="42.916237" lon="1.586897">
        <ele>1146.5</ele>
        <time>2013-02-10T13:38:39Z</time>
      </trkpt>
      <trkpt lat="42.916279" lon="1.586741">
        <ele>1146.5</ele>
        <time>2013-02-10T13:38:48Z</time>
      </trkpt>
      <trkpt lat="42.916346" lon="1.586739">
        <ele>1146.5</ele>
        <time>2013-02-10T13:39:16Z</time>
      </trkpt>
      <trkpt lat="42.916362" lon="1.586555">
        <ele>1146.5</ele>
        <time>2013-02-10T13:41:26Z</time>
      </trkpt>
      <trkpt lat="42.916408" lon="1.586445">
        <ele>1145.6</ele>
        <time>2013-02-10T13:41:38Z</time>
      </trkpt>
      <trkpt lat="42.916483" lon="1.586356">
        <ele>1146.0</ele>
        <time>2013-02-10T13:41:51Z</time>
      </trkpt>
      <trkpt lat="42.916534" lon="1.586266">
        <ele>1145.6</ele>
        <time>2013-02-10T13:42:03Z</time>
      </trkpt>
      <trkpt lat="42.916578" lon="1.586091">
        <ele>1146.5</ele>
        <time>2013-02-10T13:42:20Z</time>
      </trkpt>
      <trkpt lat="42.916634" lon="1.585935">
        <ele>1147.0</ele>
        <time>2013-02-10T13:42:34Z</time>
      </trkpt>
      <trkpt lat="42.916663" lon="1.585784">
        <ele>1147.9</ele>
        <time>2013-02-10T13:42:49Z</time>
      </trkpt>
      <trkpt lat="42.916678" lon="1.585623">
        <ele>1147.9</ele>
        <time>2013-02-10T13:43:12Z</time>
      </trkpt>
      <trkpt lat="42.916725" lon="1.585500">
        <ele>1148.9</ele>
        <time>2013-02-10T13:43:39Z</time>
      </trkpt>
      <trkpt lat="42.916843" lon="1.585433">
        <ele>1149.9</ele>
        <time>2013-02-10T13:43:58Z</time>
      </trkpt>
      <trkpt lat="42.916972" lon="1.585349">
        <ele>1150.3</ele>
        <time>2013-02-10T13:44:18Z</time>
      </trkpt>
      <trkpt lat="42.917119" lon="1.585280">
        <ele>1151.3</ele>
        <time>2013-02-10T13:44:36Z</time>
      </trkpt>
      <trkpt lat="42.917265" lon="1.585285">
        <ele>1152.3</ele>
        <time>2013-02-10T13:44:53Z</time>
      </trkpt>
      <trkpt lat="42.917353" lon="1.585258">
        <ele>1153.2</ele>
        <time>2013-02-10T13:45:10Z</time>
      </trkpt>
      <trkpt lat="42.917475" lon="1.585242">
        <ele>1154.7</ele>
        <time>2013-02-10T13:45:31Z</time>
      </trkpt>
      <trkpt lat="42.917605" lon="1.585211">
        <ele>1156.1</ele>
        <time>2013-02-10T13:45:51Z</time>
      </trkpt>
      <trkpt lat="42.917691" lon="1.585158">
        <ele>1157.1</ele>
        <time>2013-02-10T13:46:17Z</time>
      </trkpt>
      <trkpt lat="42.917763" lon="1.585067">
        <ele>1158.1</ele>
        <time>2013-02-10T13:46:32Z</time>
      </trkpt>
      <trkpt lat="42.917823" lon="1.584955">
        <ele>1159.0</ele>
        <time>2013-02-10T13:46:51Z</time>
      </trkpt>
      <trkpt lat="42.917892" lon="1.584868">
        <ele>1159.0</ele>
        <time>2013-02-10T13:47:05Z</time>
      </trkpt>
      <trkpt lat="42.917960" lon="1.584782">
        <ele>1159.5</ele>
        <time>2013-02-10T13:47:20Z</time>
      </trkpt>
      <trkpt lat="42.918091" lon="1.584666">
        <ele>1160.0</ele>
        <time>2013-02-10T13:47:41Z</time>
      </trkpt>
      <trkpt lat="42.918167" lon="1.584598">
        <ele>1161.4</ele>
        <time>2013-02-10T13:47:59Z</time>
      </trkpt>
      <trkpt lat="42.918259" lon="1.584536">
        <ele>1162.4</ele>
        <time>2013-02-10T13:48:11Z</time>
      </trkpt>
      <trkpt lat="42.918369" lon="1.584559">
        <ele>1162.8</ele>
        <time>2013-02-10T13:48:26Z</time>
      </trkpt>
      <trkpt lat="42.918421" lon="1.584572">
        <ele>1163.8</ele>
        <time>2013-02-10T13:49:59Z</time>
      </trkpt>
      <trkpt lat="42.918519" lon="1.584562">
        <ele>1164.3</ele>
        <time>2013-02-10T13:50:13Z</time>
      </trkpt>
      <trkpt lat="42.918616" lon="1.584576">
        <ele>1165.3</ele>
        <time>2013-02-10T13:50:27Z</time>
      </trkpt>
      <trkpt lat="42.918713" lon="1.584565">
        <ele>1165.7</ele>
        <time>2013-02-10T13:50:39Z</time>
      </trkpt>
      <trkpt lat="42.918802" lon="1.584569">
        <ele>1165.7</ele>
        <time>2013-02-10T13:50:49Z</time>
      </trkpt>
      <trkpt lat="42.918894" lon="1.584598">
        <ele>1166.7</ele>
        <time>2013-02-10T13:51:02Z</time>
      </trkpt>
      <trkpt lat="42.918972" lon="1.584692">
        <ele>1167.2</ele>
        <time>2013-02-10T13:51:16Z</time>
      </trkpt>
      <trkpt lat="42.918975" lon="1.584825">
        <ele>1168.1</ele>
        <time>2013-02-10T13:51:28Z</time>
      </trkpt>
      <trkpt lat="42.918988" lon="1.584936">
        <ele>1169.1</ele>
        <time>2013-02-10T13:51:41Z</time>
      </trkpt>
      <trkpt lat="42.919041" lon="1.585036">
        <ele>1171.5</ele>
        <time>2013-02-10T13:51:56Z</time>
      </trkpt>
      <trkpt lat="42.919085" lon="1.585129">
        <ele>1172.9</ele>
        <time>2013-02-10T13:52:09Z</time>
      </trkpt>
      <trkpt lat="42.919114" lon="1.585227">
        <ele>1174.4</ele>
        <time>2013-02-10T13:52:22Z</time>
      </trkpt>
      <trkpt lat="42.919139" lon="1.585353">
        <ele>1175.8</ele>
        <time>2013-02-10T13:52:36Z</time>
      </trkpt>
      <trkpt lat="42.919138" lon="1.585472">
        <ele>1180.6</ele>
        <time>2013-02-10T13:52:51Z</time>
      </trkpt>
      <trkpt lat="42.919194" lon="1.585592">
        <ele>1178.7</ele>
        <time>2013-02-10T13:53:06Z</time>
      </trkpt>
      <trkpt lat="42.919261" lon="1.585674">
        <ele>1179.7</ele>
        <time>2013-02-10T13:53:21Z</time>
      </trkpt>
      <trkpt lat="42.919288" lon="1.585807">
        <ele>1182.1</ele>
        <time>2013-02-10T13:53:36Z</time>
      </trkpt>
      <trkpt lat="42.919327" lon="1.585921">
        <ele>1182.6</ele>
        <time>2013-02-10T13:53:50Z</time>
      </trkpt>
      <trkpt lat="42.919362" lon="1.586024">
        <ele>1184.5</ele>
        <time>2013-02-10T13:54:04Z</time>
      </trkpt>
      <trkpt lat="42.919387" lon="1.586137">
        <ele>1185.4</ele>
        <time>2013-02-10T13:54:18Z</time>
      </trkpt>
      <trkpt lat="42.919417" lon="1.586243">
        <ele>1186.9</ele>
        <time>2013-02-10T13:54:33Z</time>
      </trkpt>
      <trkpt lat="42.919456" lon="1.586372">
        <ele>1188.8</ele>
        <time>2013-02-10T13:54:51Z</time>
      </trkpt>
      <trkpt lat="42.919501" lon="1.586479">
        <ele>1189.8</ele>
        <time>2013-02-10T13:55:07Z</time>
      </trkpt>
      <trkpt lat="42.919579" lon="1.586576">
        <ele>1192.7</ele>
        <time>2013-02-10T13:55:25Z</time>
      </trkpt>
      <trkpt lat="42.919622" lon="1.586710">
        <ele>1194.1</ele>
        <time>2013-02-10T13:55:40Z</time>
      </trkpt>
      <trkpt lat="42.919643" lon="1.586820">
        <ele>1195.1</ele>
        <time>2013-02-10T13:55:53Z</time>
      </trkpt>
      <trkpt lat="42.919700" lon="1.586914">
        <ele>1196.5</ele>
        <time>2013-02-10T13:56:06Z</time>
      </trkpt>
      <trkpt lat="42.919777" lon="1.586982">
        <ele>1198.4</ele>
        <time>2013-02-10T13:56:22Z</time>
      </trkpt>
      <trkpt lat="42.919873" lon="1.587028">
        <ele>1200.3</ele>
        <time>2013-02-10T13:56:37Z</time>
      </trkpt>
      <trkpt lat="42.919955" lon="1.587093">
        <ele>1201.8</ele>
        <time>2013-02-10T13:56:50Z</time>
      </trkpt>
      <trkpt lat="42.920031" lon="1.587122">
        <ele>1204.2</ele>
        <time>2013-02-10T13:57:05Z</time>
      </trkpt>
      <trkpt lat="42.920103" lon="1.587165">
        <ele>1205.6</ele>
        <time>2013-02-10T13:57:18Z</time>
      </trkpt>
      <trkpt lat="42.920186" lon="1.587204">
        <ele>1207.6</ele>
        <time>2013-02-10T13:57:32Z</time>
      </trkpt>
      <trkpt lat="42.920268" lon="1.587245">
        <ele>1210.0</ele>
        <time>2013-02-10T13:57:46Z</time>
      </trkpt>
      <trkpt lat="42.920360" lon="1.587261">
        <ele>1210.9</ele>
        <time>2013-02-10T13:58:00Z</time>
      </trkpt>
      <trkpt lat="42.920455" lon="1.587299">
        <ele>1211.9</ele>
        <time>2013-02-10T13:58:17Z</time>
      </trkpt>
      <trkpt lat="42.920536" lon="1.587318">
        <ele>1212.4</ele>
        <time>2013-02-10T13:58:35Z</time>
      </trkpt>
      <trkpt lat="42.920637" lon="1.587345">
        <ele>1212.4</ele>
        <time>2013-02-10T13:58:46Z</time>
      </trkpt>
      <trkpt lat="42.920733" lon="1.587352">
        <ele>1211.9</ele>
        <time>2013-02-10T13:58:56Z</time>
      </trkpt>
      <trkpt lat="42.920817" lon="1.587366">
        <ele>1211.9</ele>
        <time>2013-02-10T13:59:05Z</time>
      </trkpt>
      <trkpt lat="42.920906" lon="1.587412">
        <ele>1210.9</ele>
        <time>2013-02-10T13:59:14Z</time>
      </trkpt>
      <trkpt lat="42.920999" lon="1.587463">
        <ele>1209.5</ele>
        <time>2013-02-10T13:59:24Z</time>
      </trkpt>
      <trkpt lat="42.921081" lon="1.587520">
        <ele>1207.1</ele>
        <time>2013-02-10T13:59:33Z</time>
      </trkpt>
      <trkpt lat="42.921160" lon="1.587560">
        <ele>1204.2</ele>
        <time>2013-02-10T13:59:56Z</time>
      </trkpt>
      <trkpt lat="42.921265" lon="1.587592">
        <ele>1202.3</ele>
        <time>2013-02-10T14:00:04Z</time>
      </trkpt>
      <trkpt lat="42.921364" lon="1.587636">
        <ele>1200.3</ele>
        <time>2013-02-10T14:00:12Z</time>
      </trkpt>
      <trkpt lat="42.921463" lon="1.587662">
        <ele>1199.4</ele>
        <time>2013-02-10T14:00:20Z</time>
      </trkpt>
      <trkpt lat="42.921559" lon="1.587706">
        <ele>1197.0</ele>
        <time>2013-02-10T14:00:30Z</time>
      </trkpt>
      <trkpt lat="42.921652" lon="1.587746">
        <ele>1195.5</ele>
        <time>2013-02-10T14:00:37Z</time>
      </trkpt>
      <trkpt lat="42.921754" lon="1.587767">
        <ele>1193.6</ele>
        <time>2013-02-10T14:00:46Z</time>
      </trkpt>
      <trkpt lat="42.921847" lon="1.587761">
        <ele>1192.2</ele>
        <time>2013-02-10T14:00:55Z</time>
      </trkpt>
      <trkpt lat="42.921934" lon="1.587709">
        <ele>1190.2</ele>
        <time>2013-02-10T14:01:03Z</time>
      </trkpt>
      <trkpt lat="42.922025" lon="1.587667">
        <ele>1188.8</ele>
        <time>2013-02-10T14:01:11Z</time>
      </trkpt>
      <trkpt lat="42.922113" lon="1.587619">
        <ele>1187.8</ele>
        <time>2013-02-10T14:01:22Z</time>
      </trkpt>
      <trkpt lat="42.922204" lon="1.587593">
        <ele>1185.4</ele>
        <time>2013-02-10T14:01:30Z</time>
      </trkpt>
      <trkpt lat="42.922294" lon="1.587529">
        <ele>1184.5</ele>
        <time>2013-02-10T14:01:39Z</time>
      </trkpt>
      <trkpt lat="42.922376" lon="1.587451">
        <ele>1183.0</ele>
        <time>2013-02-10T14:01:48Z</time>
      </trkpt>
      <trkpt lat="42.922451" lon="1.587370">
        <ele>1182.1</ele>
        <time>2013-02-10T14:01:57Z</time>
      </trkpt>
      <trkpt lat="42.922528" lon="1.587291">
        <ele>1181.6</ele>
        <time>2013-02-10T14:02:06Z</time>
      </trkpt>
      <trkpt lat="42.922612" lon="1.587231">
        <ele>1180.2</ele>
        <time>2013-02-10T14:02:14Z</time>
      </trkpt>
      <trkpt lat="42.922689" lon="1.587157">
        <ele>1178.2</ele>
        <time>2013-02-10T14:02:22Z</time>
      </trkpt>
      <trkpt lat="42.922770" lon="1.587082">
        <ele>1177.8</ele>
        <time>2013-02-10T14:02:30Z</time>
      </trkpt>
      <trkpt lat="42.922855" lon="1.587023">
        <ele>1175.8</ele>
        <time>2013-02-10T14:02:41Z</time>
      </trkpt>
      <trkpt lat="42.922932" lon="1.586995">
        <ele>1173.9</ele>
        <time>2013-02-10T14:02:57Z</time>
      </trkpt>
      <trkpt lat="42.923031" lon="1.586949">
        <ele>1171.5</ele>
        <time>2013-02-10T14:03:07Z</time>
      </trkpt>
      <trkpt lat="42.923114" lon="1.586873">
        <ele>1169.6</ele>
        <time>2013-02-10T14:03:16Z</time>
      </trkpt>
      <trkpt lat="42.923207" lon="1.586825">
        <ele>1166.7</ele>
        <time>2013-02-10T14:03:25Z</time>
      </trkpt>
      <trkpt lat="42.923302" lon="1.586787">
        <ele>1164.3</ele>
        <time>2013-02-10T14:03:34Z</time>
      </trkpt>
      <trkpt lat="42.923387" lon="1.586753">
        <ele>1161.9</ele>
        <time>2013-02-10T14:03:43Z</time>
      </trkpt>
      <trkpt lat="42.923458" lon="1.586749">
        <ele>1159.5</ele>
        <time>2013-02-10T14:04:00Z</time>
      </trkpt>
      <trkpt lat="42.923553" lon="1.586796">
        <ele>1157.1</ele>
        <time>2013-02-10T14:04:16Z</time>
      </trkpt>
      <trkpt lat="42.923645" lon="1.586755">
        <ele>1155.2</ele>
        <time>2013-02-10T14:04:50Z</time>
      </trkpt>
      <trkpt lat="42.923738" lon="1.586736">
        <ele>1153.2</ele>
        <time>2013-02-10T14:04:59Z</time>
      </trkpt>
      <trkpt lat="42.923832" lon="1.586741">
        <ele>1150.8</ele>
        <time>2013-02-10T14:05:08Z</time>
      </trkpt>
      <trkpt lat="42.923918" lon="1.586796">
        <ele>1149.4</ele>
        <time>2013-02-10T14:05:17Z</time>
      </trkpt>
      <trkpt lat="42.923999" lon="1.586872">
        <ele>1147.5</ele>
        <time>2013-02-10T14:05:26Z</time>
      </trkpt>
      <trkpt lat="42.924075" lon="1.586941">
        <ele>1145.6</ele>
        <time>2013-02-10T14:05:35Z</time>
      </trkpt>
      <trkpt lat="42.924151" lon="1.587025">
        <ele>1144.6</ele>
        <time>2013-02-10T14:05:43Z</time>
      </trkpt>
      <trkpt lat="42.924227" lon="1.587111">
        <ele>1144.6</ele>
        <time>2013-02-10T14:05:51Z</time>
      </trkpt>
      <trkpt lat="42.924300" lon="1.587184">
        <ele>1142.7</ele>
        <time>2013-02-10T14:05:59Z</time>
      </trkpt>
      <trkpt lat="42.924378" lon="1.587261">
        <ele>1141.2</ele>
        <time>2013-02-10T14:06:08Z</time>
      </trkpt>
      <trkpt lat="42.924422" lon="1.587375">
        <ele>1140.3</ele>
        <time>2013-02-10T14:06:23Z</time>
      </trkpt>
      <trkpt lat="42.924496" lon="1.587478">
        <ele>1138.8</ele>
        <time>2013-02-10T14:06:35Z</time>
      </trkpt>
      <trkpt lat="42.924555" lon="1.587588">
        <ele>1137.9</ele>
        <time>2013-02-10T14:06:44Z</time>
      </trkpt>
      <trkpt lat="42.924596" lon="1.587700">
        <ele>1136.9</ele>
        <time>2013-02-10T14:06:54Z</time>
      </trkpt>
      <trkpt lat="42.924665" lon="1.587811">
        <ele>1134.5</ele>
        <time>2013-02-10T14:07:03Z</time>
      </trkpt>
      <trkpt lat="42.924733" lon="1.587913">
        <ele>1132.6</ele>
        <time>2013-02-10T14:07:12Z</time>
      </trkpt>
      <trkpt lat="42.924799" lon="1.587993">
        <ele>1129.7</ele>
        <time>2013-02-10T14:07:20Z</time>
      </trkpt>
      <trkpt lat="42.924872" lon="1.588092">
        <ele>1127.3</ele>
        <time>2013-02-10T14:07:31Z</time>
      </trkpt>
      <trkpt lat="42.924952" lon="1.588180">
        <ele>1124.4</ele>
        <time>2013-02-10T14:07:45Z</time>
      </trkpt>
      <trkpt lat="42.925041" lon="1.588257">
        <ele>1123.4</ele>
        <time>2013-02-10T14:07:56Z</time>
      </trkpt>
      <trkpt lat="42.925129" lon="1.588313">
        <ele>1120.6</ele>
        <time>2013-02-10T14:08:07Z</time>
      </trkpt>
      <trkpt lat="42.925218" lon="1.588370">
        <ele>1119.1</ele>
        <time>2013-02-10T14:08:15Z</time>
      </trkpt>
      <trkpt lat="42.925323" lon="1.588400">
        <ele>1119.1</ele>
        <time>2013-02-10T14:08:24Z</time>
      </trkpt>
      <trkpt lat="42.925426" lon="1.588402">
        <ele>1117.7</ele>
        <time>2013-02-10T14:08:33Z</time>
      </trkpt>
      <trkpt lat="42.925523" lon="1.588414">
        <ele>1117.2</ele>
        <time>2013-02-10T14:08:42Z</time>
      </trkpt>
      <trkpt lat="42.925623" lon="1.588457">
        <ele>1116.2</ele>
        <time>2013-02-10T14:08:51Z</time>
      </trkpt>
      <trkpt lat="42.925723" lon="1.588502">
        <ele>1114.3</ele>
        <time>2013-02-10T14:09:00Z</time>
      </trkpt>
      <trkpt lat="42.925806" lon="1.588544">
        <ele>1111.9</ele>
        <time>2013-02-10T14:09:17Z</time>
      </trkpt>
      <trkpt lat="42.925899" lon="1.588593">
        <ele>1109.0</ele>
        <time>2013-02-10T14:09:30Z</time>
      </trkpt>
      <trkpt lat="42.925998" lon="1.588639">
        <ele>1107.1</ele>
        <time>2013-02-10T14:09:39Z</time>
      </trkpt>
      <trkpt lat="42.926094" lon="1.588627">
        <ele>1104.7</ele>
        <time>2013-02-10T14:09:47Z</time>
      </trkpt>
      <trkpt lat="42.926187" lon="1.588597">
        <ele>1102.3</ele>
        <time>2013-02-10T14:09:55Z</time>
      </trkpt>
      <trkpt lat="42.926282" lon="1.588597">
        <ele>1099.9</ele>
        <time>2013-02-10T14:10:03Z</time>
      </trkpt>
      <trkpt lat="42.926377" lon="1.588590">
        <ele>1097.5</ele>
        <time>2013-02-10T14:10:11Z</time>
      </trkpt>
      <trkpt lat="42.926472" lon="1.588602">
        <ele>1094.6</ele>
        <time>2013-02-10T14:10:22Z</time>
      </trkpt>
      <trkpt lat="42.926565" lon="1.588579">
        <ele>1093.6</ele>
        <time>2013-02-10T14:10:31Z</time>
      </trkpt>
      <trkpt lat="42.926653" lon="1.588514">
        <ele>1091.7</ele>
        <time>2013-02-10T14:10:41Z</time>
      </trkpt>
      <trkpt lat="42.926749" lon="1.588487">
        <ele>1090.8</ele>
        <time>2013-02-10T14:10:49Z</time>
      </trkpt>
      <trkpt lat="42.926845" lon="1.588433">
        <ele>1089.3</ele>
        <time>2013-02-10T14:11:01Z</time>
      </trkpt>
      <trkpt lat="42.926938" lon="1.588388">
        <ele>1087.4</ele>
        <time>2013-02-10T14:11:10Z</time>
      </trkpt>
      <trkpt lat="42.927035" lon="1.588364">
        <ele>1086.9</ele>
        <time>2013-02-10T14:11:19Z</time>
      </trkpt>
      <trkpt lat="42.927120" lon="1.588362">
        <ele>1076.5</ele>
        <time>2013-02-10T14:11:30Z</time>
      </trkpt>
      <trkpt lat="42.927205" lon="1.588370">
        <ele>1075.5</ele>
        <time>2013-02-10T14:11:41Z</time>
      </trkpt>
      <trkpt lat="42.927283" lon="1.588396">
        <ele>1074.5</ele>
        <time>2013-02-10T14:11:50Z</time>
      </trkpt>
      <trkpt lat="42.927409" lon="1.588441">
        <ele>1073.0</ele>
        <time>2013-02-10T14:12:00Z</time>
      </trkpt>
      <trkpt lat="42.927512" lon="1.588472">
        <ele>1071.4</ele>
        <time>2013-02-10T14:12:10Z</time>
      </trkpt>
      <trkpt lat="42.927584" lon="1.588525">
        <ele>1069.1</ele>
        <time>2013-02-10T14:12:19Z</time>
      </trkpt>
      <trkpt lat="42.927674" lon="1.588503">
        <ele>1066.2</ele>
        <time>2013-02-10T14:12:29Z</time>
      </trkpt>
      <trkpt lat="42.927759" lon="1.588466">
        <ele>1063.6</ele>
        <time>2013-02-10T14:12:42Z</time>
      </trkpt>
      <trkpt lat="42.927880" lon="1.588410">
        <ele>1059.7</ele>
        <time>2013-02-10T14:12:52Z</time>
      </trkpt>
    </trkseg>
  </trk>
</gpx>

